Home > Products > Valid Products > OSO

000
SXUS55 KMSO 221823
OSOMSO
MONTANA AWOS SUMMARY
NATIONAL WEATHER SERVICE MISSOULA MT
1123 AM MST MON DEC 22 2014

Montana AWOS Reports

LAUREL      |K6S8 221815Z AUTO 28012G18KT 40SM 03/M08 A2982 RMK AO1 T00281077
ROUNDUP     |KRPX 221815Z AUTO 29014G19KT 40SM 04/M08 A2973 RMK AO1 T00441082






000
SXUS55 KMSO 221813
OSOMSO
MONTANA AWOS SUMMARY
NATIONAL WEATHER SERVICE MISSOULA MT
1113 AM MST MON DEC 22 2014

Montana AWOS Reports

MALTA       |KM75 221755Z AUTO 27013G18KT 40SM 02/M03 A2974 RMK AO1 T00171027






000
SXUS55 KMSO 221803
OSOMSO
MONTANA AWOS SUMMARY
NATIONAL WEATHER SERVICE MISSOULA MT
1103 AM MST MON DEC 22 2014

Montana AWOS Reports

LAUREL      |K6S8 221755Z AUTO 28015G19KT 40SM 03/M08 A2982 RMK AO1 T00281077
ROUNDUP     |KRPX 221755Z AUTO 28013KT 40SM 04/M07 A2972 RMK AO1 T00391071
SCOBEY      |K9S2 221755Z AUTO 28016G21KT 3SM M05/M09 A2966 RMK AO1 T10491088
TWIN BRIDGES|K7S1 221755Z AUTO 34004KT 40SM 00/M04 A2995 RMK AO1 T00001043






000
SXUS55 KMSO 221744
OSOMSO
MONTANA AWOS SUMMARY
NATIONAL WEATHER SERVICE MISSOULA MT
1043 AM MST MON DEC 22 2014

Montana AWOS Reports

LAUREL      |K6S8 221735Z AUTO 27011G19KT 40SM 03/M07 A2981 RMK AO1 T00281071
ROUNDUP     |KRPX 221735Z AUTO 28005KT 40SM 03/M07 A2972 RMK AO1 T00331066






000
SXUS55 KMSO 221723
OSOMSO
MONTANA AWOS SUMMARY
NATIONAL WEATHER SERVICE MISSOULA MT
1023 AM MST MON DEC 22 2014

Montana AWOS Reports

LAUREL      |K6S8 221715Z AUTO 26013G17KT 40SM 03/M07 A2980 RMK AO1 T00281071
ROUNDUP     |KRPX 221715Z AUTO 27010KT 40SM 03/M06 A2972 RMK AO1 T00331060






000
SXUS55 KMSO 221703
OSOMSO
MONTANA AWOS SUMMARY
NATIONAL WEATHER SERVICE MISSOULA MT
1003 AM MST MON DEC 22 2014

Montana AWOS Reports

LAUREL      |K6S8 221655Z AUTO 26011G15KT 40SM 02/M07 A2980 RMK AO1 T00221071
ROUNDUP     |KRPX 221655Z AUTO 00000KT 40SM 03/M06 A2971 RMK AO1 T00281060
TWIN BRIDGES|K7S1 221655Z AUTO 01008KT 40SM M01/M06 A2993 RMK AO1 T10051055
SCOBEY      |K9S2 221655Z AUTO 28017G21KT 1 1/2SM M06/M09 A2965 RMK AO1 T10551093






000
SXUS55 KMSO 221643
OSOMSO
MONTANA AWOS SUMMARY
NATIONAL WEATHER SERVICE MISSOULA MT
943 AM MST MON DEC 22 2014

Montana AWOS Reports

LAUREL      |K6S8 221635Z AUTO 27011G19KT 40SM 02/M07 A2979 RMK AO1 T00221071
ROUNDUP     |KRPX 221635Z AUTO 26005KT 40SM 03/M06 A2970 RMK AO1 T00281060
MALTA       |KM75 221555Z AUTO 25007KT 40SM M02/M05 A2970 RMK AO1 T10161049






000
SXUS55 KMSO 221623
OSOMSO
MONTANA AWOS SUMMARY
NATIONAL WEATHER SERVICE MISSOULA MT
923 AM MST MON DEC 22 2014

Montana AWOS Reports

LAUREL      |K6S8 221615Z AUTO 26012G21KT 40SM 02/M07 A2978 RMK AO1 T00171071
ROUNDUP     |KRPX 221615Z AUTO 25005KT 40SM 02/M07 A2970 RMK AO1 T00221071






000
SXUS55 KMSO 221614
OSOMSO
MONTANA AWOS SUMMARY
NATIONAL WEATHER SERVICE MISSOULA MT
913 AM MST MON DEC 22 2014

Montana AWOS Reports

SCOBEY      |K9S2 221555Z AUTO 28015KT 1/2SM M06/M09 A2963 RMK AO1 T10551088
TWIN BRIDGES|K7S1 221555Z AUTO 34006KT 4SM M01/M06 A2991 RMK AO1 T10051055






000
SXUS55 KMSO 221604
OSOMSO
MONTANA AWOS SUMMARY
NATIONAL WEATHER SERVICE MISSOULA MT
904 AM MST MON DEC 22 2014

Montana AWOS Reports

ROUNDUP     |KRPX 221555Z AUTO 25005KT 40SM 02/M07 A2969 RMK AO1 T00221066






000
SXUS55 KMSO 221544
OSOMSO
MONTANA AWOS SUMMARY
NATIONAL WEATHER SERVICE MISSOULA MT
843 AM MST MON DEC 22 2014

Montana AWOS Reports

LAUREL      |K6S8 221535Z AUTO 28014G21KT 40SM 02/M07 A2978 RMK AO1 T00221066
ROUNDUP     |KRPX 221535Z AUTO 25004KT 40SM 01/M07 A2969 RMK AO1 T00111071






000
SXUS55 KMSO 221544
OSOMSO
MONTANA AWOS SUMMARY
NATIONAL WEATHER SERVICE MISSOULA MT
843 AM MST MON DEC 22 2014

Montana AWOS Reports

LAUREL      |K6S8 221535Z AUTO 28014G21KT 40SM 02/M07 A2978 RMK AO1 T00221066
ROUNDUP     |KRPX 221535Z AUTO 25004KT 40SM 01/M07 A2969 RMK AO1 T00111071






000
SXUS55 KMSO 221533
OSOMSO
MONTANA AWOS SUMMARY
NATIONAL WEATHER SERVICE MISSOULA MT
833 AM MST MON DEC 22 2014

Montana AWOS Reports

MALTA       |KM75 221455Z AUTO 27004KT 40SM M01/M04 A2968 RMK AO1 T10101043






000
SXUS55 KMSO 221524
OSOMSO
MONTANA AWOS SUMMARY
NATIONAL WEATHER SERVICE MISSOULA MT
823 AM MST MON DEC 22 2014

Montana AWOS Reports

LAUREL      |K6S8 221515Z AUTO 27013G21KT 40SM 02/M06 A2978 RMK AO1 T00221055
ROUNDUP     |KRPX 221515Z AUTO 25005KT 40SM 01/M07 A2969 RMK AO1 T00111066






000
SXUS55 KMSO 221513
OSOMSO
MONTANA AWOS SUMMARY
NATIONAL WEATHER SERVICE MISSOULA MT
813 AM MST MON DEC 22 2014

Montana AWOS Reports

SCOBEY      |K9S2 221455Z AUTO 28012G18KT 1SM M05/M08 A2961 RMK AO1 T10491082
TWIN BRIDGES|K7S1 221455Z AUTO 00000KT 40SM M01/M07 A2990 RMK AO1 T10051066






000
SXUS55 KMSO 221503
OSOMSO
MONTANA AWOS SUMMARY
NATIONAL WEATHER SERVICE MISSOULA MT
802 AM MST MON DEC 22 2014

Montana AWOS Reports

LAUREL      |K6S8 221455Z AUTO 27010G17KT 40SM 02/M07 A2977 RMK AO1 T00221071
ROUNDUP     |KRPX 221455Z AUTO 25007KT 40SM 01/M07 A2968 RMK AO1 T00111071






000
SXUS55 KMSO 221453
OSOMSO
MONTANA AWOS SUMMARY
NATIONAL WEATHER SERVICE MISSOULA MT
752 AM MST MON DEC 22 2014

Montana AWOS Reports

MALTA       |KM75 221355Z AUTO 26010KT 40SM M01/M04 A2967 RMK AO1 T10051043






000
SXUS55 KMSO 221443
OSOMSO
MONTANA AWOS SUMMARY
NATIONAL WEATHER SERVICE MISSOULA MT
743 AM MST MON DEC 22 2014

Montana AWOS Reports

ROUNDUP     |KRPX 221435Z AUTO 24004KT 40SM 00/M07 A2968 RMK AO1 T00001071






000
SXUS55 KMSO 221423
OSOMSO
MONTANA AWOS SUMMARY
NATIONAL WEATHER SERVICE MISSOULA MT
723 AM MST MON DEC 22 2014

Montana AWOS Reports

LAUREL      |K6S8 221415Z AUTO 28008KT 40SM 03/M07 A2977 RMK AO1 T00281071
ROUNDUP     |KRPX 221415Z AUTO 00000KT 40SM M01/M08 A2968 RMK AO1 T10101077






000
SXUS55 KMSO 221413
OSOMSO
MONTANA AWOS SUMMARY
NATIONAL WEATHER SERVICE MISSOULA MT
712 AM MST MON DEC 22 2014

Montana AWOS Reports

SCOBEY      |K9S2 221355Z AUTO 28013KT 1/2SM M05/M08 A2960 RMK AO1 T10491077
TWIN BRIDGES|K7S1 221355Z AUTO 00000KT 40SM M03/M07 A2989 RMK AO1 T10271071






000
SXUS55 KMSO 221403
OSOMSO
MONTANA AWOS SUMMARY
NATIONAL WEATHER SERVICE MISSOULA MT
703 AM MST MON DEC 22 2014

Montana AWOS Reports

LAUREL      |K6S8 221355Z AUTO 27012G17KT 40SM 03/M07 A2976 RMK AO1 T00281071
ROUNDUP     |KRPX 221355Z AUTO 22004KT 40SM M01/M08 A2967 RMK AO1 T10101077






000
SXUS55 KMSO 221343
OSOMSO
MONTANA AWOS SUMMARY
NATIONAL WEATHER SERVICE MISSOULA MT
643 AM MST MON DEC 22 2014

Montana AWOS Reports

LAUREL      |K6S8 221335Z AUTO 26012G19KT 40SM 03/M07 A2976 RMK AO1 T00281066
ROUNDUP     |KRPX 221335Z AUTO 22005KT 40SM M02/M08 A2966 RMK AO1 T10161082






000
SXUS55 KMSO 221343
OSOMSO
MONTANA AWOS SUMMARY
NATIONAL WEATHER SERVICE MISSOULA MT
643 AM MST MON DEC 22 2014

Montana AWOS Reports

LAUREL      |K6S8 221335Z AUTO 26012G19KT 40SM 03/M07 A2976 RMK AO1 T00281066
ROUNDUP     |KRPX 221335Z AUTO 22005KT 40SM M02/M08 A2966 RMK AO1 T10161082






000
SXUS55 KMSO 221323
OSOMSO
MONTANA AWOS SUMMARY
NATIONAL WEATHER SERVICE MISSOULA MT
623 AM MST MON DEC 22 2014

Montana AWOS Reports

LAUREL      |K6S8 221315Z AUTO 26013G17KT 40SM 03/M07 A2975 RMK AO1 T00281066
ROUNDUP     |KRPX 221315Z AUTO 00000KT 40SM 00/M07 A2966 RMK AO1 T00001071






000
SXUS55 KMSO 221323
OSOMSO
MONTANA AWOS SUMMARY
NATIONAL WEATHER SERVICE MISSOULA MT
623 AM MST MON DEC 22 2014

Montana AWOS Reports

LAUREL      |K6S8 221315Z AUTO 26013G17KT 40SM 03/M07 A2975 RMK AO1 T00281066
ROUNDUP     |KRPX 221315Z AUTO 00000KT 40SM 00/M07 A2966 RMK AO1 T00001071






000
SXUS55 KMSO 221313
OSOMSO
MONTANA AWOS SUMMARY
NATIONAL WEATHER SERVICE MISSOULA MT
612 AM MST MON DEC 22 2014

Montana AWOS Reports

MALTA       |KM75 221255Z AUTO 26013KT 40SM 00/M04 A2965 RMK AO1 T00001038
TWIN BRIDGES|K7S1 221255Z AUTO 33004KT 40SM 00/M07 A2988 RMK AO1 T00001066






000
SXUS55 KMSO 221313
OSOMSO
MONTANA AWOS SUMMARY
NATIONAL WEATHER SERVICE MISSOULA MT
612 AM MST MON DEC 22 2014

Montana AWOS Reports

MALTA       |KM75 221255Z AUTO 26013KT 40SM 00/M04 A2965 RMK AO1 T00001038
TWIN BRIDGES|K7S1 221255Z AUTO 33004KT 40SM 00/M07 A2988 RMK AO1 T00001066






000
SXUS55 KMSO 221303
OSOMSO
MONTANA AWOS SUMMARY
NATIONAL WEATHER SERVICE MISSOULA MT
603 AM MST MON DEC 22 2014

Montana AWOS Reports

LAUREL      |K6S8 221255Z AUTO 25012G19KT 40SM 03/M07 A2975 RMK AO1 T00281066
ROUNDUP     |KRPX 221255Z AUTO 26008KT 40SM 01/M07 A2966 RMK AO1 T00061071
SCOBEY      |K9S2 221255Z AUTO 28014G18KT 1/2SM M05/M08 A2958 RMK AO1 T10491082






000
SXUS55 KMSO 221303
OSOMSO
MONTANA AWOS SUMMARY
NATIONAL WEATHER SERVICE MISSOULA MT
603 AM MST MON DEC 22 2014

Montana AWOS Reports

LAUREL      |K6S8 221255Z AUTO 25012G19KT 40SM 03/M07 A2975 RMK AO1 T00281066
ROUNDUP     |KRPX 221255Z AUTO 26008KT 40SM 01/M07 A2966 RMK AO1 T00061071
SCOBEY      |K9S2 221255Z AUTO 28014G18KT 1/2SM M05/M08 A2958 RMK AO1 T10491082






000
SXUS55 KMSO 221243
OSOMSO
MONTANA AWOS SUMMARY
NATIONAL WEATHER SERVICE MISSOULA MT
543 AM MST MON DEC 22 2014

Montana AWOS Reports

LAUREL      |K6S8 221235Z AUTO 25011G15KT 40SM 02/M07 A2975 RMK AO1 T00221066
ROUNDUP     |KRPX 221235Z AUTO 26010G14KT 40SM 02/M07 A2965 RMK AO1 T00171066






000
SXUS55 KMSO 221224
OSOMSO
MONTANA AWOS SUMMARY
NATIONAL WEATHER SERVICE MISSOULA MT
523 AM MST MON DEC 22 2014

Montana AWOS Reports

LAUREL      |K6S8 221215Z AUTO 24013G18KT 40SM 02/M07 A2974 RMK AO1 T00221066
ROUNDUP     |KRPX 221215Z AUTO 26011G15KT 40SM 01/M07 A2965 RMK AO1 T00111071






000
SXUS55 KMSO 221203
OSOMSO
MONTANA AWOS SUMMARY
NATIONAL WEATHER SERVICE MISSOULA MT
503 AM MST MON DEC 22 2014

Montana AWOS Reports

LAUREL      |K6S8 221155Z AUTO 25012G17KT 40SM 03/M07 A2974 RMK AO1 T00281066
ROUNDUP     |KRPX 221155Z AUTO 27009KT 40SM 02/M07 A2965 RMK AO1 T00171071
MALTA       |KM75 221155Z AUTO 26009G15KT 40SM M01/M04 A2964 RMK AO1 T10051043
TWIN BRIDGES|K7S1 221155Z AUTO 34005KT 40SM 00/M05 A2988 RMK AO1 T00001049






000
SXUS55 KMSO 221143
OSOMSO
MONTANA AWOS SUMMARY
NATIONAL WEATHER SERVICE MISSOULA MT
443 AM MST MON DEC 22 2014

Montana AWOS Reports

LAUREL      |K6S8 221135Z AUTO 25010G18KT 40SM 03/M07 A2974 RMK AO1 T00281071
ROUNDUP     |KRPX 221135Z AUTO 27009KT 40SM 02/M07 A2965 RMK AO1 T00171071






000
SXUS55 KMSO 221124
OSOMSO
MONTANA AWOS SUMMARY
NATIONAL WEATHER SERVICE MISSOULA MT
423 AM MST MON DEC 22 2014

Montana AWOS Reports

LAUREL      |K6S8 221115Z AUTO 25013KT 40SM 03/M07 A2974 RMK AO1 T00331071
ROUNDUP     |KRPX 221115Z AUTO 28005KT 40SM 03/M07 A2964 RMK AO1 T00281066






000
SXUS55 KMSO 221103
OSOMSO
MONTANA AWOS SUMMARY
NATIONAL WEATHER SERVICE MISSOULA MT
403 AM MST MON DEC 22 2014

Montana AWOS Reports

LAUREL      |K6S8 221055Z AUTO 25010G14KT 40SM 03/M08 A2974 RMK AO1 T00331082
ROUNDUP     |KRPX 221055Z AUTO 29012KT 40SM 03/M07 A2964 RMK AO1 T00281066
SCOBEY      |K9S2 221055Z AUTO 28011G16KT 2 1/2SM M04/M08 A2954 RMK AO1 T10431077
TWIN BRIDGES|K7S1 221055Z AUTO 00000KT 40SM 00/M04 A2986 RMK AO1 T00001038
MALTA       |KM75 221055Z AUTO 27012G21KT 40SM 00/M04 A2962 RMK AO1 T00001038






000
SXUS55 KMSO 221043
OSOMSO
MONTANA AWOS SUMMARY
NATIONAL WEATHER SERVICE MISSOULA MT
343 AM MST MON DEC 22 2014

Montana AWOS Reports

LAUREL      |K6S8 221035Z AUTO 27007KT 40SM 03/M09 A2973 RMK AO1 T00281093
ROUNDUP     |KRPX 221035Z AUTO 00000KT 40SM 00/M07 A2964 RMK AO1 T00001071






000
SXUS55 KMSO 221023
OSOMSO
MONTANA AWOS SUMMARY
NATIONAL WEATHER SERVICE MISSOULA MT
322 AM MST MON DEC 22 2014

Montana AWOS Reports

LAUREL      |K6S8 221015Z AUTO 26007KT 40SM 03/M09 A2973 RMK AO1 T00281093
ROUNDUP     |KRPX 221015Z AUTO 26007KT 40SM 00/M08 A2964 RMK AO1 T00001077






000
SXUS55 KMSO 221004
OSOMSO
MONTANA AWOS SUMMARY
NATIONAL WEATHER SERVICE MISSOULA MT
303 AM MST MON DEC 22 2014

Montana AWOS Reports

LAUREL      |K6S8 220955Z AUTO 26009G13KT 40SM 03/M09 A2973 RMK AO1 T00331093
ROUNDUP     |KRPX 220955Z AUTO 27005KT 40SM 01/M07 A2964 RMK AO1 T00061071
SCOBEY      |K9S2 220955Z AUTO 28011G15KT 1 3/4SM M04/M07 A2952 RMK AO1 T10381071
TWIN BRIDGES|K7S1 220955Z AUTO 20004KT 2 1/2SM 01/M04 A2985 RMK AO1 T00061038
MALTA       |KM75 220955Z AUTO 26015KT 40SM 00/M04 A2961 RMK AO1 T00001038






000
SXUS55 KMSO 220943
OSOMSO
MONTANA AWOS SUMMARY
NATIONAL WEATHER SERVICE MISSOULA MT
243 AM MST MON DEC 22 2014

Montana AWOS Reports

LAUREL      |K6S8 220935Z AUTO 27008KT 40SM 04/M09 A2973 RMK AO1 T00391088
ROUNDUP     |KRPX 220935Z AUTO 00000KT 40SM 01/M07 A2964 RMK AO1 T00061071






000
SXUS55 KMSO 220923
OSOMSO
MONTANA AWOS SUMMARY
NATIONAL WEATHER SERVICE MISSOULA MT
223 AM MST MON DEC 22 2014

Montana AWOS Reports

LAUREL      |K6S8 220915Z AUTO 26010G17KT 40SM 04/M10 A2973 RMK AO1 T00391099
ROUNDUP     |KRPX 220915Z AUTO 00000KT 40SM 01/M07 A2964 RMK AO1 T00111071






000
SXUS55 KMSO 220903
OSOMSO
MONTANA AWOS SUMMARY
NATIONAL WEATHER SERVICE MISSOULA MT
203 AM MST MON DEC 22 2014

Montana AWOS Reports

LAUREL      |K6S8 220855Z AUTO 25012G17KT 40SM 04/M10 A2973 RMK AO1 T00441099
ROUNDUP     |KRPX 220855Z AUTO 00000KT 40SM 00/M08 A2963 RMK AO1 T00001077
SCOBEY      |K9S2 220855Z AUTO 28016G22KT 3SM M04/M07 A2950 RMK AO1 T10381071
MALTA       |KM75 220855Z AUTO 25011G19KT 40SM 00/M04 A2959 RMK AO1 T00001038
TWIN BRIDGES|K7S1 220855Z AUTO 08006KT 40SM 01/M04 A2985 RMK AO1 T00111038






000
SXUS55 KMSO 220843
OSOMSO
MONTANA AWOS SUMMARY
NATIONAL WEATHER SERVICE MISSOULA MT
143 AM MST MON DEC 22 2014

Montana AWOS Reports

LAUREL      |K6S8 220835Z AUTO 26012G20KT 40SM 04/M09 A2972 RMK AO1 T00441093
ROUNDUP     |KRPX 220835Z AUTO 00000KT 40SM 01/M07 A2963 RMK AO1 T00061071






000
SXUS55 KMSO 220823
OSOMSO
MONTANA AWOS SUMMARY
NATIONAL WEATHER SERVICE MISSOULA MT
123 AM MST MON DEC 22 2014

Montana AWOS Reports

LAUREL      |K6S8 220815Z AUTO 26016G21KT 40SM 04/M09 A2972 RMK AO1 T00441093
ROUNDUP     |KRPX 220815Z AUTO 25006KT 40SM 01/M07 A2963 RMK AO1 T00111071
MALTA       |KM75 220755Z AUTO 26014G19KT 40SM 01/M03 A2958 RMK AO1 T00061032
SCOBEY      |K9S2 220755Z AUTO 28015G20KT 1SM M03/M06 A2948 RMK AO1 T10321060






000
SXUS55 KMSO 220823
OSOMSO
MONTANA AWOS SUMMARY
NATIONAL WEATHER SERVICE MISSOULA MT
123 AM MST MON DEC 22 2014

Montana AWOS Reports

LAUREL      |K6S8 220815Z AUTO 26016G21KT 40SM 04/M09 A2972 RMK AO1 T00441093
ROUNDUP     |KRPX 220815Z AUTO 25006KT 40SM 01/M07 A2963 RMK AO1 T00111071
MALTA       |KM75 220755Z AUTO 26014G19KT 40SM 01/M03 A2958 RMK AO1 T00061032
SCOBEY      |K9S2 220755Z AUTO 28015G20KT 1SM M03/M06 A2948 RMK AO1 T10321060






000
SXUS55 KMSO 220813
OSOMSO
MONTANA AWOS SUMMARY
NATIONAL WEATHER SERVICE MISSOULA MT
112 AM MST MON DEC 22 2014

Montana AWOS Reports

LAUREL      |K6S8 220755Z AUTO 25015G24KT 40SM 04/M09 A2972 RMK AO1 T00441093
ROUNDUP     |KRPX 220755Z AUTO 26011G15KT 40SM 03/M07 A2962 RMK AO1 T00281066






000
SXUS55 KMSO 220813
OSOMSO
MONTANA AWOS SUMMARY
NATIONAL WEATHER SERVICE MISSOULA MT
112 AM MST MON DEC 22 2014

Montana AWOS Reports

LAUREL      |K6S8 220755Z AUTO 25015G24KT 40SM 04/M09 A2972 RMK AO1 T00441093
ROUNDUP     |KRPX 220755Z AUTO 26011G15KT 40SM 03/M07 A2962 RMK AO1 T00281066






000
SXUS55 KMSO 220743
OSOMSO
MONTANA AWOS SUMMARY
NATIONAL WEATHER SERVICE MISSOULA MT
1243 AM MST MON DEC 22 2014

Montana AWOS Reports

LAUREL      |K6S8 220735Z AUTO 25018G26KT 40SM 04/M09 A2971 RMK AO1 T00441093
ROUNDUP     |KRPX 220735Z AUTO 25010G14KT 40SM 03/M07 A2962 RMK AO1 T00281071
SCOBEY      |K9S2 220655Z AUTO 28014G18KT 1/2SM M02/M05 A2947 RMK AO1 T10211049
TWIN BRIDGES|K7S1 220655Z AUTO 00000KT 40SM 00/M04 A2987 RMK AO1 T00001043






000
SXUS55 KMSO 220743
OSOMSO
MONTANA AWOS SUMMARY
NATIONAL WEATHER SERVICE MISSOULA MT
1243 AM MST MON DEC 22 2014

Montana AWOS Reports

LAUREL      |K6S8 220735Z AUTO 25018G26KT 40SM 04/M09 A2971 RMK AO1 T00441093
ROUNDUP     |KRPX 220735Z AUTO 25010G14KT 40SM 03/M07 A2962 RMK AO1 T00281071
SCOBEY      |K9S2 220655Z AUTO 28014G18KT 1/2SM M02/M05 A2947 RMK AO1 T10211049
TWIN BRIDGES|K7S1 220655Z AUTO 00000KT 40SM 00/M04 A2987 RMK AO1 T00001043






000
SXUS55 KMSO 220723
OSOMSO
MONTANA AWOS SUMMARY
NATIONAL WEATHER SERVICE MISSOULA MT
1223 AM MST MON DEC 22 2014

Montana AWOS Reports

LAUREL      |K6S8 220715Z AUTO 25017G28KT 40SM 04/M09 A2972 RMK AO1 T00441088
ROUNDUP     |KRPX 220715Z AUTO 25010G14KT 40SM 03/M07 A2962 RMK AO1 T00281071






000
SXUS55 KMSO 220723
OSOMSO
MONTANA AWOS SUMMARY
NATIONAL WEATHER SERVICE MISSOULA MT
1223 AM MST MON DEC 22 2014

Montana AWOS Reports

LAUREL      |K6S8 220715Z AUTO 25017G28KT 40SM 04/M09 A2972 RMK AO1 T00441088
ROUNDUP     |KRPX 220715Z AUTO 25010G14KT 40SM 03/M07 A2962 RMK AO1 T00281071






000
SXUS55 KMSO 220703
OSOMSO
MONTANA AWOS SUMMARY
NATIONAL WEATHER SERVICE MISSOULA MT
1203 AM MST MON DEC 22 2014

Montana AWOS Reports

ROUNDUP     |KRPX 220655Z AUTO 24009KT 40SM 03/M07 A2962 RMK AO1 T00281071
LAUREL      |K6S8 220655Z AUTO 25021G30KT 40SM 05/M08 A2972 RMK AO1 T00501082






000
SXUS55 KMSO 220643
OSOMSO
MONTANA AWOS SUMMARY
NATIONAL WEATHER SERVICE MISSOULA MT
1143 PM MST SUN DEC 21 2014

Montana AWOS Reports

ROUNDUP     |KRPX 220635Z AUTO 27010KT 40SM 04/M07 A2962 RMK AO1 T00391066
LAUREL      |K6S8 220635Z AUTO 25019G30KT 40SM 05/M08 A2971 RMK AO1 T00501082






000
SXUS55 KMSO 220623
OSOMSO
MONTANA AWOS SUMMARY
NATIONAL WEATHER SERVICE MISSOULA MT
1123 PM MST SUN DEC 21 2014

Montana AWOS Reports

ROUNDUP     |KRPX 220615Z AUTO 28017G23KT 40SM 05/M07 A2961 RMK AO1 T00501071
LAUREL      |K6S8 220615Z AUTO 25018G24KT 40SM 05/M08 A2971 RMK AO1 T00501077






000
SXUS55 KMSO 220613
OSOMSO
MONTANA AWOS SUMMARY
NATIONAL WEATHER SERVICE MISSOULA MT
1113 PM MST SUN DEC 21 2014

Montana AWOS Reports

TWIN BRIDGES|K7S1 220555Z AUTO 00000KT 40SM 00/M04 A2987 RMK AO1 T00001038
SCOBEY      |K9S2 220555Z AUTO 28014G22KT 3/4SM M01/M03 A2944 RMK AO1 T10051032






000
SXUS55 KMSO 220604
OSOMSO
MONTANA AWOS SUMMARY
NATIONAL WEATHER SERVICE MISSOULA MT
1103 PM MST SUN DEC 21 2014

Montana AWOS Reports

LAUREL      |K6S8 220555Z AUTO 25018G26KT 40SM 05/M08 A2971 RMK AO1 T00501082
ROUNDUP     |KRPX 220555Z AUTO 28019G24KT 40SM 06/M08 A2960 RMK AO1 T00561077
MALTA       |KM75 220555Z AUTO 26013G18KT 40SM 02/M03 A2955 RMK AO1 T00171027






000
SXUS55 KMSO 220543
OSOMSO
MONTANA AWOS SUMMARY
NATIONAL WEATHER SERVICE MISSOULA MT
1043 PM MST SUN DEC 21 2014

Montana AWOS Reports

LAUREL      |K6S8 220535Z AUTO 25020G32KT 40SM 05/M08 A2970 RMK AO1 T00501077
ROUNDUP     |KRPX 220535Z AUTO 25008KT 40SM 04/M07 A2960 RMK AO1 T00391071






000
SXUS55 KMSO 220523
OSOMSO
MONTANA AWOS SUMMARY
NATIONAL WEATHER SERVICE MISSOULA MT
1022 PM MST SUN DEC 21 2014

Montana AWOS Reports

LAUREL      |K6S8 220515Z AUTO 25020G29KT 40SM 05/M08 A2969 RMK AO1 T00501077
ROUNDUP     |KRPX 220515Z AUTO 24009KT 40SM 04/M07 A2960 RMK AO1 T00391066






000
SXUS55 KMSO 220513
OSOMSO
MONTANA AWOS SUMMARY
NATIONAL WEATHER SERVICE MISSOULA MT
1013 PM MST SUN DEC 21 2014

Montana AWOS Reports

MALTA       |KM75 220455Z AUTO 26011G16KT 40SM 02/M02 A2952 RMK AO1 T00171021






000
SXUS55 KMSO 220504
OSOMSO
MONTANA AWOS SUMMARY
NATIONAL WEATHER SERVICE MISSOULA MT
1003 PM MST SUN DEC 21 2014

Montana AWOS Reports

ROUNDUP     |KRPX 220455Z AUTO 24008KT 40SM 04/M07 A2959 RMK AO1 T00391066
SCOBEY      |K9S2 220455Z AUTO 23008KT 2SM 01/M02 A2941 RMK AO1 T00061016
LAUREL      |K6S8 220455Z AUTO 26017G28KT 40SM 05/M08 A2967 RMK AO1 T00501077
TWIN BRIDGES|K7S1 220455Z AUTO 12007KT 40SM 00/M04 A2986 RMK AO1 T00001043






000
SXUS55 KMSO 220453
OSOMSO
MONTANA AWOS SUMMARY
NATIONAL WEATHER SERVICE MISSOULA MT
953 PM MST SUN DEC 21 2014

Montana AWOS Reports

LAUREL      |K6S8 220435Z AUTO 26015G27KT 40SM 05/M07 A2968 RMK AO1 T00501071
ROUNDUP     |KRPX 220435Z AUTO 00000KT 40SM 04/M05 A2959 RMK AO1 T00391049






000
SXUS55 KMSO 220423
OSOMSO
MONTANA AWOS SUMMARY
NATIONAL WEATHER SERVICE MISSOULA MT
922 PM MST SUN DEC 21 2014

Montana AWOS Reports

LAUREL      |K6S8 220415Z AUTO 25015G24KT 40SM 05/M07 A2968 RMK AO1 T00501071
ROUNDUP     |KRPX 220415Z AUTO 00000KT 40SM 03/M05 A2959 RMK AO1 T00281049






000
SXUS55 KMSO 220413
OSOMSO
MONTANA AWOS SUMMARY
NATIONAL WEATHER SERVICE MISSOULA MT
913 PM MST SUN DEC 21 2014

Montana AWOS Reports

MALTA       |KM75 220355Z AUTO 27012G17KT 40SM 02/M02 A2951 RMK AO1 T00221021






000
SXUS55 KMSO 220404
OSOMSO
MONTANA AWOS SUMMARY
NATIONAL WEATHER SERVICE MISSOULA MT
903 PM MST SUN DEC 21 2014

Montana AWOS Reports

LAUREL      |K6S8 220355Z AUTO 26018G28KT 40SM 06/M08 A2967 RMK AO1 T00561077
ROUNDUP     |KRPX 220355Z AUTO 00000KT 40SM 04/M05 A2958 RMK AO1 T00391049
SCOBEY      |K9S2 220355Z AUTO 19004KT 3SM 01/M02 A2939 RMK AO1 T00061021
TWIN BRIDGES|K7S1 220355Z AUTO 35008KT 40SM 00/M04 A2985 RMK AO1 T00001038






000
SXUS55 KMSO 220353
OSOMSO
MONTANA AWOS SUMMARY
NATIONAL WEATHER SERVICE MISSOULA MT
853 PM MST SUN DEC 21 2014

Montana AWOS Reports

LAUREL      |K6S8 220335Z AUTO 26018G27KT 40SM 06/M08 A2966 RMK AO1 T00561082






000
SXUS55 KMSO 220343
OSOMSO
MONTANA AWOS SUMMARY
NATIONAL WEATHER SERVICE MISSOULA MT
843 PM MST SUN DEC 21 2014

Montana AWOS Reports

ROUNDUP     |KRPX 220335Z AUTO 29009G14KT 40SM 05/M04 A2958 RMK AO1 T00501043






000
SXUS55 KMSO 220323
OSOMSO
MONTANA AWOS SUMMARY
NATIONAL WEATHER SERVICE MISSOULA MT
823 PM MST SUN DEC 21 2014

Montana AWOS Reports

ROUNDUP     |KRPX 220315Z AUTO 29014G21KT 40SM 05/M05 A2957 RMK AO1 T00501049
LAUREL      |K6S8 220315Z AUTO 26014G22KT 40SM 06/M09 A2966 RMK AO1 T00561088






000
SXUS55 KMSO 220303
OSOMSO
MONTANA AWOS SUMMARY
NATIONAL WEATHER SERVICE MISSOULA MT
803 PM MST SUN DEC 21 2014

Montana AWOS Reports

LAUREL      |K6S8 220255Z AUTO 25011G17KT 40SM 06/M08 A2965 RMK AO1 T00611082
ROUNDUP     |KRPX 220255Z AUTO 27006KT 40SM 04/M04 A2957 RMK AO1 T00441043






000
SXUS55 KMSO 220244
OSOMSO
MONTANA AWOS SUMMARY
NATIONAL WEATHER SERVICE MISSOULA MT
743 PM MST SUN DEC 21 2014

Montana AWOS Reports

LAUREL      |K6S8 220235Z AUTO 26012G20KT 40SM 06/M09 A2964 RMK AO1 T00611088
ROUNDUP     |KRPX 220235Z AUTO 28011G16KT 40SM 05/M04 A2955 RMK AO1 T00501038






000
SXUS55 KMSO 220244
OSOMSO
MONTANA AWOS SUMMARY
NATIONAL WEATHER SERVICE MISSOULA MT
743 PM MST SUN DEC 21 2014

Montana AWOS Reports

LAUREL      |K6S8 220235Z AUTO 26012G20KT 40SM 06/M09 A2964 RMK AO1 T00611088
ROUNDUP     |KRPX 220235Z AUTO 28011G16KT 40SM 05/M04 A2955 RMK AO1 T00501038






000
SXUS55 KMSO 220233
OSOMSO
MONTANA AWOS SUMMARY
NATIONAL WEATHER SERVICE MISSOULA MT
732 PM MST SUN DEC 21 2014

Montana AWOS Reports

LAUREL      |K6S8 220215Z AUTO 24012G19KT 40SM 07/M08 A2964 RMK AO1 T00721082






000
SXUS55 KMSO 220223
OSOMSO
MONTANA AWOS SUMMARY
NATIONAL WEATHER SERVICE MISSOULA MT
722 PM MST SUN DEC 21 2014

Montana AWOS Reports

ROUNDUP     |KRPX 220215Z AUTO 29014G20KT 40SM 05/M03 A2954 RMK AO1 T00501032
MALTA       |KM75 220155Z AUTO 25015G21KT 40SM 03/M02 A2945 RMK AO1 T00331016






000
SXUS55 KMSO 220223
OSOMSO
MONTANA AWOS SUMMARY
NATIONAL WEATHER SERVICE MISSOULA MT
722 PM MST SUN DEC 21 2014

Montana AWOS Reports

ROUNDUP     |KRPX 220215Z AUTO 29014G20KT 40SM 05/M03 A2954 RMK AO1 T00501032
MALTA       |KM75 220155Z AUTO 25015G21KT 40SM 03/M02 A2945 RMK AO1 T00331016






000
SXUS55 KMSO 220203
OSOMSO
MONTANA AWOS SUMMARY
NATIONAL WEATHER SERVICE MISSOULA MT
703 PM MST SUN DEC 21 2014

Montana AWOS Reports

LAUREL      |K6S8 220155Z AUTO 27016G21KT 40SM 07/M08 A2963 RMK AO1 T00721082
ROUNDUP     |KRPX 220155Z AUTO 29018G24KT 40SM 05/M03 A2953 RMK AO1 T00501032
SCOBEY      |K9S2 220155Z AUTO 00000KT 15SM M01/M04 A2937 RMK AO1 T10051038
TWIN BRIDGES|K7S1 220155Z AUTO 18005KT 40SM 01/M03 A2983 RMK AO1 T00061032






000
SXUS55 KMSO 220203
OSOMSO
MONTANA AWOS SUMMARY
NATIONAL WEATHER SERVICE MISSOULA MT
703 PM MST SUN DEC 21 2014

Montana AWOS Reports

LAUREL      |K6S8 220155Z AUTO 27016G21KT 40SM 07/M08 A2963 RMK AO1 T00721082
ROUNDUP     |KRPX 220155Z AUTO 29018G24KT 40SM 05/M03 A2953 RMK AO1 T00501032
SCOBEY      |K9S2 220155Z AUTO 00000KT 15SM M01/M04 A2937 RMK AO1 T10051038
TWIN BRIDGES|K7S1 220155Z AUTO 18005KT 40SM 01/M03 A2983 RMK AO1 T00061032






000
SXUS55 KMSO 220143
OSOMSO
MONTANA AWOS SUMMARY
NATIONAL WEATHER SERVICE MISSOULA MT
643 PM MST SUN DEC 21 2014

Montana AWOS Reports

LAUREL      |K6S8 220135Z AUTO 25009G16KT 40SM 07/M08 A2963 RMK AO1 T00671082
ROUNDUP     |KRPX 220135Z AUTO 29021G25KT 40SM 06/M03 A2952 RMK AO1 T00561032






000
SXUS55 KMSO 220143
OSOMSO
MONTANA AWOS SUMMARY
NATIONAL WEATHER SERVICE MISSOULA MT
643 PM MST SUN DEC 21 2014

Montana AWOS Reports

LAUREL      |K6S8 220135Z AUTO 25009G16KT 40SM 07/M08 A2963 RMK AO1 T00671082
ROUNDUP     |KRPX 220135Z AUTO 29021G25KT 40SM 06/M03 A2952 RMK AO1 T00561032






000
SXUS55 KMSO 220133
OSOMSO
MONTANA AWOS SUMMARY
NATIONAL WEATHER SERVICE MISSOULA MT
633 PM MST SUN DEC 21 2014

Montana AWOS Reports

LAUREL      |K6S8 220115Z AUTO 26012G19KT 40SM 07/M09 A2962 RMK AO1 T00671088






000
SXUS55 KMSO 220133
OSOMSO
MONTANA AWOS SUMMARY
NATIONAL WEATHER SERVICE MISSOULA MT
633 PM MST SUN DEC 21 2014

Montana AWOS Reports

LAUREL      |K6S8 220115Z AUTO 26012G19KT 40SM 07/M09 A2962 RMK AO1 T00671088






000
SXUS55 KMSO 220123
OSOMSO
MONTANA AWOS SUMMARY
NATIONAL WEATHER SERVICE MISSOULA MT
623 PM MST SUN DEC 21 2014

Montana AWOS Reports

ROUNDUP     |KRPX 220115Z AUTO 28020G27KT 40SM 06/M04 A2952 RMK AO1 T00561038






000
SXUS55 KMSO 220123
OSOMSO
MONTANA AWOS SUMMARY
NATIONAL WEATHER SERVICE MISSOULA MT
623 PM MST SUN DEC 21 2014

Montana AWOS Reports

ROUNDUP     |KRPX 220115Z AUTO 28020G27KT 40SM 06/M04 A2952 RMK AO1 T00561038






000
SXUS55 KMSO 220103
OSOMSO
MONTANA AWOS SUMMARY
NATIONAL WEATHER SERVICE MISSOULA MT
603 PM MST SUN DEC 21 2014

Montana AWOS Reports

ROUNDUP     |KRPX 220055Z AUTO 29019G27KT 40SM 06/M03 A2951 RMK AO1 T00611032
SCOBEY      |K9S2 220055Z AUTO 00000KT 40SM M01/M04 A2937 RMK AO1 T10051038
MALTA       |KM75 220055Z AUTO 25006KT 40SM 02/M02 A2942 RMK AO1 T00221016
LAUREL      |K6S8 220055Z AUTO 25010G21KT 40SM 07/M09 A2961 RMK AO1 T00721093
TWIN BRIDGES|K7S1 220055Z AUTO 34007KT 1 1/4SM 02/M02 A2983 RMK AO1 T00171021






000
SXUS55 KMSO 220103
OSOMSO
MONTANA AWOS SUMMARY
NATIONAL WEATHER SERVICE MISSOULA MT
603 PM MST SUN DEC 21 2014

Montana AWOS Reports

ROUNDUP     |KRPX 220055Z AUTO 29019G27KT 40SM 06/M03 A2951 RMK AO1 T00611032
SCOBEY      |K9S2 220055Z AUTO 00000KT 40SM M01/M04 A2937 RMK AO1 T10051038
MALTA       |KM75 220055Z AUTO 25006KT 40SM 02/M02 A2942 RMK AO1 T00221016
LAUREL      |K6S8 220055Z AUTO 25010G21KT 40SM 07/M09 A2961 RMK AO1 T00721093
TWIN BRIDGES|K7S1 220055Z AUTO 34007KT 1 1/4SM 02/M02 A2983 RMK AO1 T00171021






000
SXUS55 KMSO 220044
OSOMSO
MONTANA AWOS SUMMARY
NATIONAL WEATHER SERVICE MISSOULA MT
543 PM MST SUN DEC 21 2014

Montana AWOS Reports

LAUREL      |K6S8 220035Z AUTO 26013G21KT 40SM 08/M09 A2959 RMK AO1 T00781093
ROUNDUP     |KRPX 220035Z AUTO 29014G21KT 40SM 07/M04 A2950 RMK AO1 T00671043






000
SXUS55 KMSO 220044
OSOMSO
MONTANA AWOS SUMMARY
NATIONAL WEATHER SERVICE MISSOULA MT
543 PM MST SUN DEC 21 2014

Montana AWOS Reports

LAUREL      |K6S8 220035Z AUTO 26013G21KT 40SM 08/M09 A2959 RMK AO1 T00781093
ROUNDUP     |KRPX 220035Z AUTO 29014G21KT 40SM 07/M04 A2950 RMK AO1 T00671043






000
SXUS55 KMSO 220023
OSOMSO
MONTANA AWOS SUMMARY
NATIONAL WEATHER SERVICE MISSOULA MT
523 PM MST SUN DEC 21 2014

Montana AWOS Reports

ROUNDUP     |KRPX 220015Z AUTO 30022G29KT 40SM 07/M07 A2948 RMK AO1 T00721066
LAUREL      |K6S8 220015Z AUTO 26012G20KT 40SM 08/M09 A2958 RMK AO1 T00831088






000
SXUS55 KMSO 220023
OSOMSO
MONTANA AWOS SUMMARY
NATIONAL WEATHER SERVICE MISSOULA MT
523 PM MST SUN DEC 21 2014

Montana AWOS Reports

ROUNDUP     |KRPX 220015Z AUTO 30022G29KT 40SM 07/M07 A2948 RMK AO1 T00721066
LAUREL      |K6S8 220015Z AUTO 26012G20KT 40SM 08/M09 A2958 RMK AO1 T00831088






000
SXUS55 KMSO 220013
OSOMSO
MONTANA AWOS SUMMARY
NATIONAL WEATHER SERVICE MISSOULA MT
513 PM MST SUN DEC 21 2014

Montana AWOS Reports

LAUREL      |K6S8 212355Z AUTO 26014G19KT 40SM 09/M09 A2957 RMK AO1 T00891088
ROUNDUP     |KRPX 212355Z AUTO 29019G24KT 40SM 08/M07 A2947 RMK AO1 T00781066
SCOBEY      |K9S2 212355Z AUTO 00000KT 40SM 00/M04 A2935 RMK AO1 T00001038
MALTA       |KM75 212355Z AUTO 26006KT 40SM 02/00 A2940 RMK AO1 T00220000
TWIN BRIDGES|K7S1 212355Z AUTO 29008KT 40SM 03/M04 A2975 RMK AO1 T00281038






000
SXUS55 KMSO 220013
OSOMSO
MONTANA AWOS SUMMARY
NATIONAL WEATHER SERVICE MISSOULA MT
513 PM MST SUN DEC 21 2014

Montana AWOS Reports

LAUREL      |K6S8 212355Z AUTO 26014G19KT 40SM 09/M09 A2957 RMK AO1 T00891088
ROUNDUP     |KRPX 212355Z AUTO 29019G24KT 40SM 08/M07 A2947 RMK AO1 T00781066
SCOBEY      |K9S2 212355Z AUTO 00000KT 40SM 00/M04 A2935 RMK AO1 T00001038
MALTA       |KM75 212355Z AUTO 26006KT 40SM 02/00 A2940 RMK AO1 T00220000
TWIN BRIDGES|K7S1 212355Z AUTO 29008KT 40SM 03/M04 A2975 RMK AO1 T00281038






000
SXUS55 KMSO 212343
OSOMSO
MONTANA AWOS SUMMARY
NATIONAL WEATHER SERVICE MISSOULA MT
443 PM MST SUN DEC 21 2014

Montana AWOS Reports

LAUREL      |K6S8 212335Z AUTO 26016G24KT 40SM 09/M09 A2956 RMK AO1 T00891088
ROUNDUP     |KRPX 212335Z AUTO 28009KT 40SM 07/M05 A2946 RMK AO1 T00671049






000
SXUS55 KMSO 212323
OSOMSO
MONTANA AWOS SUMMARY
NATIONAL WEATHER SERVICE MISSOULA MT
423 PM MST SUN DEC 21 2014

Montana AWOS Reports

LAUREL      |K6S8 212315Z AUTO 26019G34KT 40SM 09/M09 A2955 RMK AO1 T00941088
ROUNDUP     |KRPX 212315Z AUTO 27015G19KT 40SM 08/M05 A2944 RMK AO1 T00781049






000
SXUS55 KMSO 212313
OSOMSO
MONTANA AWOS SUMMARY
NATIONAL WEATHER SERVICE MISSOULA MT
413 PM MST SUN DEC 21 2014

Montana AWOS Reports

LAUREL      |K6S8 212255Z AUTO 26016G28KT 40SM 09/M09 A2955 RMK AO1 T00941088
SCOBEY      |K9S2 212255Z AUTO 00000KT 40SM 00/M04 A2934 RMK AO1 T00001038
TWIN BRIDGES|K7S1 212255Z AUTO 23006KT 40SM 04/M03 A2972 RMK AO1 T00441032






000
SXUS55 KMSO 212304
OSOMSO
MONTANA AWOS SUMMARY
NATIONAL WEATHER SERVICE MISSOULA MT
403 PM MST SUN DEC 21 2014

Montana AWOS Reports

ROUNDUP     |KRPX 212255Z AUTO 27007KT 40SM 08/M05 A2943 RMK AO1 T00781049
MALTA       |KM75 212255Z AUTO 00000KT 40SM 02/M01 A2936 RMK AO1 T00171005






000
SXUS55 KMSO 212243
OSOMSO
MONTANA AWOS SUMMARY
NATIONAL WEATHER SERVICE MISSOULA MT
343 PM MST SUN DEC 21 2014

Montana AWOS Reports

LAUREL      |K6S8 212235Z AUTO 26014G24KT 40SM 09/M07 A2954 RMK AO1 T00941071
ROUNDUP     |KRPX 212235Z AUTO 27014G21KT 40SM 08/M04 A2942 RMK AO1 T00831043






000
SXUS55 KMSO 212224
OSOMSO
MONTANA AWOS SUMMARY
NATIONAL WEATHER SERVICE MISSOULA MT
323 PM MST SUN DEC 21 2014

Montana AWOS Reports

LAUREL      |K6S8 212215Z AUTO 26017G37KT 40SM 11/M07 A2952 RMK AO1 T01111071
ROUNDUP     |KRPX 212215Z AUTO 26017G25KT 40SM 08/M05 A2940 RMK AO1 T00831049






000
SXUS55 KMSO 212203
OSOMSO
MONTANA AWOS SUMMARY
NATIONAL WEATHER SERVICE MISSOULA MT
303 PM MST SUN DEC 21 2014

Montana AWOS Reports

ROUNDUP     |KRPX 212155Z AUTO 27017G25KT 40SM 08/M04 A2939 RMK AO1 T00831043
SCOBEY      |K9S2 212155Z AUTO 00000KT 40SM 01/M03 A2933 RMK AO1 T00061032
MALTA       |KM75 212155Z AUTO 21005KT 40SM 02/00 A2933 RMK AO1 T00220000
TWIN BRIDGES|K7S1 212155Z AUTO 25006KT 40SM 06/M03 A2970 RMK AO1 T00561032
LAUREL      |K6S8 212155Z AUTO 27018G27KT 40SM 12/M08 A2950 RMK AO1 T01171082






000
SXUS55 KMSO 212153
OSOMSO
MONTANA AWOS SUMMARY
NATIONAL WEATHER SERVICE MISSOULA MT
253 PM MST SUN DEC 21 2014

Montana AWOS Reports

LAUREL      |K6S8 212135Z AUTO 27020G36KT 40SM 12/M08 A2949 RMK AO1 T01221082






000
SXUS55 KMSO 212153
OSOMSO
MONTANA AWOS SUMMARY
NATIONAL WEATHER SERVICE MISSOULA MT
253 PM MST SUN DEC 21 2014

Montana AWOS Reports

LAUREL      |K6S8 212135Z AUTO 27020G36KT 40SM 12/M08 A2949 RMK AO1 T01221082






000
SXUS55 KMSO 212143
OSOMSO
MONTANA AWOS SUMMARY
NATIONAL WEATHER SERVICE MISSOULA MT
242 PM MST SUN DEC 21 2014

Montana AWOS Reports

ROUNDUP     |KRPX 212135Z AUTO 27014G22KT 40SM 08/M03 A2937 RMK AO1 T00781032






000
SXUS55 KMSO 212143
OSOMSO
MONTANA AWOS SUMMARY
NATIONAL WEATHER SERVICE MISSOULA MT
242 PM MST SUN DEC 21 2014

Montana AWOS Reports

ROUNDUP     |KRPX 212135Z AUTO 27014G22KT 40SM 08/M03 A2937 RMK AO1 T00781032






000
SXUS55 KMSO 212123
OSOMSO
MONTANA AWOS SUMMARY
NATIONAL WEATHER SERVICE MISSOULA MT
223 PM MST SUN DEC 21 2014

Montana AWOS Reports

ROUNDUP     |KRPX 212115Z AUTO 26020G40KT 40SM 09/M02 A2937 RMK AO1 T00891021
LAUREL      |K6S8 212115Z AUTO 25017G23KT 40SM 12/M07 A2949 RMK AO1 T01221066






000
SXUS55 KMSO 212103
OSOMSO
MONTANA AWOS SUMMARY
NATIONAL WEATHER SERVICE MISSOULA MT
203 PM MST SUN DEC 21 2014

Montana AWOS Reports

LAUREL      |K6S8 212055Z AUTO 25014G19KT 40SM 11/M03 A2948 RMK AO1 T01111032
ROUNDUP     |KRPX 212055Z AUTO 25021G28KT 40SM 09/M04 A2935 RMK AO1 T00941038
SCOBEY      |K9S2 212055Z AUTO 00000KT 40SM 00/M04 A2932 RMK AO1 T00001038
MALTA       |KM75 212055Z AUTO 00000KT 40SM 01/M01 A2931 RMK AO1 T00111010
TWIN BRIDGES|K7S1 212055Z AUTO 23007KT 40SM 06/M03 A2970 RMK AO1 T00561027






000
SXUS55 KMSO 212043
OSOMSO
MONTANA AWOS SUMMARY
NATIONAL WEATHER SERVICE MISSOULA MT
143 PM MST SUN DEC 21 2014

Montana AWOS Reports

LAUREL      |K6S8 212035Z AUTO 25016G30KT 40SM 11/M02 A2948 RMK AO1 T01111021
ROUNDUP     |KRPX 212035Z AUTO 24020G32KT 40SM 09/M04 A2934 RMK AO1 T00941038






000
SXUS55 KMSO 212023
OSOMSO
MONTANA AWOS SUMMARY
NATIONAL WEATHER SERVICE MISSOULA MT
123 PM MST SUN DEC 21 2014

Montana AWOS Reports

ROUNDUP     |KRPX 212015Z AUTO 24022G31KT 40SM 09/M04 A2934 RMK AO1 T00941038
LAUREL      |K6S8 212015Z AUTO 24015G27KT 40SM 11/M02 A2947 RMK AO1 T01111021






000
SXUS55 KMSO 212013
OSOMSO
MONTANA AWOS SUMMARY
NATIONAL WEATHER SERVICE MISSOULA MT
113 PM MST SUN DEC 21 2014

Montana AWOS Reports

LAUREL      |K6S8 211955Z AUTO 23013G28KT 40SM 11/M02 A2946 RMK AO1 T01111016
ROUNDUP     |KRPX 211955Z AUTO 24018G32KT 40SM 09/M03 A2934 RMK AO1 T00941032
SCOBEY      |K9S2 211955Z AUTO 00000KT 40SM M01/M04 A2932 RMK AO1 T10101043
MALTA       |KM75 211955Z AUTO 00000KT 40SM 01/M02 A2931 RMK AO1 T00061021
TWIN BRIDGES|K7S1 211955Z AUTO 28009KT 40SM 05/M02 A2969 RMK AO1 T00501021






000
SXUS55 KMSO 211944
OSOMSO
MONTANA AWOS SUMMARY
NATIONAL WEATHER SERVICE MISSOULA MT
1243 PM MST SUN DEC 21 2014

Montana AWOS Reports

LAUREL      |K6S8 211935Z AUTO 40SM 11/M02 A2946 RMK AO1 T01111021
ROUNDUP     |KRPX 211935Z AUTO 24018G27KT 40SM 11/M02 A2933 RMK AO1 T01111021






000
SXUS55 KMSO 211944
OSOMSO
MONTANA AWOS SUMMARY
NATIONAL WEATHER SERVICE MISSOULA MT
1243 PM MST SUN DEC 21 2014

Montana AWOS Reports

LAUREL      |K6S8 211935Z AUTO 40SM 11/M02 A2946 RMK AO1 T01111021
ROUNDUP     |KRPX 211935Z AUTO 24018G27KT 40SM 11/M02 A2933 RMK AO1 T01111021






000
SXUS55 KMSO 211923
OSOMSO
MONTANA AWOS SUMMARY
NATIONAL WEATHER SERVICE MISSOULA MT
1223 PM MST SUN DEC 21 2014

Montana AWOS Reports

LAUREL      |K6S8 211915Z AUTO 40SM 12/M03 A2946 RMK AO1 T01171027
ROUNDUP     |KRPX 211915Z AUTO 25014G19KT 40SM 10/M02 A2934 RMK AO1 T01001016






000
SXUS55 KMSO 211923
OSOMSO
MONTANA AWOS SUMMARY
NATIONAL WEATHER SERVICE MISSOULA MT
1223 PM MST SUN DEC 21 2014

Montana AWOS Reports

LAUREL      |K6S8 211915Z AUTO 40SM 12/M03 A2946 RMK AO1 T01171027
ROUNDUP     |KRPX 211915Z AUTO 25014G19KT 40SM 10/M02 A2934 RMK AO1 T01001016






000
SXUS55 KMSO 211913
OSOMSO
MONTANA AWOS SUMMARY
NATIONAL WEATHER SERVICE MISSOULA MT
1213 PM MST SUN DEC 21 2014

Montana AWOS Reports

LAUREL      |K6S8 211855Z AUTO 24023G30KT 40SM 11/M02 A2945 RMK AO1 T01111021
MALTA       |KM75 211855Z AUTO 00000KT 40SM 00/M02 A2931 RMK AO1 T00001021
PLAINS      |KS34 211855Z AUTO 40SM 09/M01 A2969 RMK AO1 T00891005
SCOBEY      |K9S2 211855Z AUTO 00000KT 40SM M02/M04 A2934 RMK AO1 T10161043






000
SXUS55 KMSO 211903
OSOMSO
MONTANA AWOS SUMMARY
NATIONAL WEATHER SERVICE MISSOULA MT
1202 PM MST SUN DEC 21 2014

Montana AWOS Reports

ROUNDUP     |KRPX 211855Z AUTO 23006KT 40SM 08/M01 A2935 RMK AO1 T00831005
TWIN BRIDGES|K7S1 211855Z AUTO 25014G21KT 40SM 05/M02 A2967 RMK AO1 T00501021






000
SXUS55 KMSO 211843
OSOMSO
MONTANA AWOS SUMMARY
NATIONAL WEATHER SERVICE MISSOULA MT
1143 AM MST SUN DEC 21 2014

Montana AWOS Reports

LAUREL      |K6S8 211835Z AUTO 22015G19KT 40SM 11/M03 A2944 RMK AO1 T01061027
ROUNDUP     |KRPX 211835Z AUTO 25013G20KT 40SM 08/M01 A2935 RMK AO1 T00831005






000
SXUS55 KMSO 211833
OSOMSO
MONTANA AWOS SUMMARY
NATIONAL WEATHER SERVICE MISSOULA MT
1132 AM MST SUN DEC 21 2014

Montana AWOS Reports

MALTA       |KM75 211755Z AUTO 00000KT 40SM M01/M04 A2932 RMK AO1 T10101038






000
SXUS55 KMSO 211823
OSOMSO
MONTANA AWOS SUMMARY
NATIONAL WEATHER SERVICE MISSOULA MT
1122 AM MST SUN DEC 21 2014

Montana AWOS Reports

LAUREL      |K6S8 211815Z AUTO 21012G18KT 40SM 10/M02 A2945 RMK AO1 T01001021
ROUNDUP     |KRPX 211815Z AUTO 24016G24KT 40SM 08/M01 A2935 RMK AO1 T00781005






000
SXUS55 KMSO 211803
OSOMSO
MONTANA AWOS SUMMARY
NATIONAL WEATHER SERVICE MISSOULA MT
1103 AM MST SUN DEC 21 2014

Montana AWOS Reports

ROUNDUP     |KRPX 211755Z AUTO 24016KT 40SM 07/M01 A2935 RMK AO1 T00671005
TWIN BRIDGES|K7S1 211755Z AUTO 00000KT 40SM 04/M01 A2966 RMK AO1 T00441010
LAUREL      |K6S8 211755Z AUTO 20009G15KT 40SM 09/M02 A2946 RMK AO1 T00891021
SCOBEY      |K9S2 211755Z AUTO 00000KT 40SM M04/M07 A2937 RMK AO1 T10431071
PLAINS      |KS34 211755Z AUTO 22006KT 40SM 08/03 A2967 RMK AO1 T00780028






000
SXUS55 KMSO 211743
OSOMSO
MONTANA AWOS SUMMARY
NATIONAL WEATHER SERVICE MISSOULA MT
1043 AM MST SUN DEC 21 2014

Montana AWOS Reports

ROUNDUP     |KRPX 211735Z AUTO 22012G17KT 40SM 06/M01 A2936 RMK AO1 T00561010
LAUREL      |K6S8 211735Z AUTO 21010G15KT 40SM 07/M04 A2947 RMK AO1 T00721043






000
SXUS55 KMSO 211723
OSOMSO
MONTANA AWOS SUMMARY
NATIONAL WEATHER SERVICE MISSOULA MT
1022 AM MST SUN DEC 21 2014

Montana AWOS Reports

ROUNDUP     |KRPX 211715Z AUTO 21013KT 40SM 04/M03 A2936 RMK AO1 T00391027
LAUREL      |K6S8 211715Z AUTO 22004KT 40SM 06/M06 A2947 RMK AO1 T00561060






000
SXUS55 KMSO 211703
OSOMSO
MONTANA AWOS SUMMARY
NATIONAL WEATHER SERVICE MISSOULA MT
1003 AM MST SUN DEC 21 2014

Montana AWOS Reports

LAUREL      |K6S8 211655Z AUTO 22005KT 40SM 04/M07 A2947 RMK AO1 T00441066
ROUNDUP     |KRPX 211655Z AUTO 19010G16KT 40SM 03/M03 A2937 RMK AO1 T00281032
SCOBEY      |K9S2 211655Z AUTO 00000KT 40SM M07/M10 A2939 RMK AO1 T10661099
MALTA       |KM75 211655Z AUTO 00000KT 10SM M01/M04 A2934 RMK AO1 T10101038
TWIN BRIDGES|K7S1 211655Z AUTO 00000KT 40SM 04/M01 A2962 RMK AO1 T00441005
PLAINS      |KS34 211655Z AUTO 00000KT 40SM 05/03 A2963 RMK AO1 T00500033






000
SXUS55 KMSO 211643
OSOMSO
MONTANA AWOS SUMMARY
NATIONAL WEATHER SERVICE MISSOULA MT
943 AM MST SUN DEC 21 2014

Montana AWOS Reports

LAUREL      |K6S8 211635Z AUTO 21007KT 40SM 04/M07 A2947 RMK AO1 T00441066
ROUNDUP     |KRPX 211635Z AUTO 19007KT 40SM 02/M04 A2937 RMK AO1 T00171038






000
SXUS55 KMSO 211623
OSOMSO
MONTANA AWOS SUMMARY
NATIONAL WEATHER SERVICE MISSOULA MT
922 AM MST SUN DEC 21 2014

Montana AWOS Reports

ROUNDUP     |KRPX 211615Z AUTO 20007KT 40SM 02/M04 A2936 RMK AO1 T00171038
LAUREL      |K6S8 211615Z AUTO 23009G15KT 40SM 04/M07 A2948 RMK AO1 T00441066






000
SXUS55 KMSO 211613
OSOMSO
MONTANA AWOS SUMMARY
NATIONAL WEATHER SERVICE MISSOULA MT
913 AM MST SUN DEC 21 2014

Montana AWOS Reports

LAUREL      |K6S8 211555Z AUTO 22009KT 40SM 04/M07 A2947 RMK AO1 T00441066
ROUNDUP     |KRPX 211555Z AUTO 20010G14KT 40SM 01/M04 A2935 RMK AO1 T00111043
MALTA       |KM75 211555Z AUTO 00000KT 15SM M03/M06 A2934 RMK AO1 T10321060
TWIN BRIDGES|K7S1 211555Z AUTO 12004KT 40SM 04/M01 A2962 RMK AO1 T00391010
SCOBEY      |K9S2 211555Z AUTO 00000KT 40SM M07/M10 A2939 RMK AO1 T10661099






000
SXUS55 KMSO 211544
OSOMSO
MONTANA AWOS SUMMARY
NATIONAL WEATHER SERVICE MISSOULA MT
843 AM MST SUN DEC 21 2014

Montana AWOS Reports

LAUREL      |K6S8 211535Z AUTO 25007KT 40SM 04/M07 A2947 RMK AO1 T00441071
ROUNDUP     |KRPX 211535Z AUTO 19008KT 40SM 01/M04 A2935 RMK AO1 T00111043






000
SXUS55 KMSO 211523
OSOMSO
MONTANA AWOS SUMMARY
NATIONAL WEATHER SERVICE MISSOULA MT
823 AM MST SUN DEC 21 2014

Montana AWOS Reports

MALTA       |KM75 211455Z AUTO 00000KT 40SM M04/M06 A2935 RMK AO1 T10381060
LAUREL      |K6S8 211515Z AUTO 25007KT 40SM 04/M07 A2946 RMK AO1 T00441066
ROUNDUP     |KRPX 211515Z AUTO 19004KT 40SM 01/M04 A2936 RMK AO1 T00111043






000
SXUS55 KMSO 211514
OSOMSO
MONTANA AWOS SUMMARY
NATIONAL WEATHER SERVICE MISSOULA MT
813 AM MST SUN DEC 21 2014

Montana AWOS Reports

LAUREL      |K6S8 211455Z AUTO 22007KT 40SM 04/M07 A2946 RMK AO1 T00441071
SCOBEY      |K9S2 211455Z AUTO 00000KT 40SM M09/M12 A2941 RMK AO1 T10881121
TWIN BRIDGES|K7S1 211455Z AUTO 11005KT 40SM 04/M01 A2960 RMK AO1 T00391010






000
SXUS55 KMSO 211503
OSOMSO
MONTANA AWOS SUMMARY
NATIONAL WEATHER SERVICE MISSOULA MT
803 AM MST SUN DEC 21 2014

Montana AWOS Reports

ROUNDUP     |KRPX 211455Z AUTO 19005KT 40SM 01/M05 A2937 RMK AO1 T00111049






000
SXUS55 KMSO 211443
OSOMSO
MONTANA AWOS SUMMARY
NATIONAL WEATHER SERVICE MISSOULA MT
743 AM MST SUN DEC 21 2014

Montana AWOS Reports

LAUREL      |K6S8 211435Z AUTO 22007KT 40SM 04/M08 A2946 RMK AO1 T00391077






000
SXUS55 KMSO 211423
OSOMSO
MONTANA AWOS SUMMARY
NATIONAL WEATHER SERVICE MISSOULA MT
723 AM MST SUN DEC 21 2014

Montana AWOS Reports

MALTA       |KM75 211355Z AUTO 00000KT 40SM M06/M08 A2936 RMK AO1 T10551082
ROUNDUP     |KRPX 211415Z AUTO 19008KT 40SM 02/M04 A2937 RMK AO1 T00171043
LAUREL      |K6S8 211415Z AUTO 23005KT 40SM 04/M08 A2946 RMK AO1 T00391077






000
SXUS55 KMSO 211403
OSOMSO
MONTANA AWOS SUMMARY
NATIONAL WEATHER SERVICE MISSOULA MT
703 AM MST SUN DEC 21 2014

Montana AWOS Reports

ROUNDUP     |KRPX 211355Z AUTO 17006KT 40SM 01/M05 A2937 RMK AO1 T00061049
SCOBEY      |K9S2 211355Z AUTO 00000KT 40SM M09/M13 A2944 RMK AO1 T10931127
TWIN BRIDGES|K7S1 211355Z AUTO 13007KT 40SM 04/M01 A2961 RMK AO1 T00391010
LAUREL      |K6S8 211355Z AUTO 00000KT 40SM 04/M08 A2947 RMK AO1 T00391077






000
SXUS55 KMSO 211403
OSOMSO
MONTANA AWOS SUMMARY
NATIONAL WEATHER SERVICE MISSOULA MT
703 AM MST SUN DEC 21 2014

Montana AWOS Reports

ROUNDUP     |KRPX 211355Z AUTO 17006KT 40SM 01/M05 A2937 RMK AO1 T00061049
SCOBEY      |K9S2 211355Z AUTO 00000KT 40SM M09/M13 A2944 RMK AO1 T10931127
TWIN BRIDGES|K7S1 211355Z AUTO 13007KT 40SM 04/M01 A2961 RMK AO1 T00391010
LAUREL      |K6S8 211355Z AUTO 00000KT 40SM 04/M08 A2947 RMK AO1 T00391077






000
SXUS55 KMSO 211343
OSOMSO
MONTANA AWOS SUMMARY
NATIONAL WEATHER SERVICE MISSOULA MT
643 AM MST SUN DEC 21 2014

Montana AWOS Reports

ROUNDUP     |KRPX 211335Z AUTO 00000KT 40SM 01/M06 A2937 RMK AO1 T00061060
LAUREL      |K6S8 211335Z AUTO 00000KT 40SM 04/M08 A2948 RMK AO1 T00391082






000
SXUS55 KMSO 211343
OSOMSO
MONTANA AWOS SUMMARY
NATIONAL WEATHER SERVICE MISSOULA MT
643 AM MST SUN DEC 21 2014

Montana AWOS Reports

ROUNDUP     |KRPX 211335Z AUTO 00000KT 40SM 01/M06 A2937 RMK AO1 T00061060
LAUREL      |K6S8 211335Z AUTO 00000KT 40SM 04/M08 A2948 RMK AO1 T00391082






000
SXUS55 KMSO 211333
OSOMSO
MONTANA AWOS SUMMARY
NATIONAL WEATHER SERVICE MISSOULA MT
632 AM MST SUN DEC 21 2014

Montana AWOS Reports

MALTA       |KM75 211255Z AUTO 00000KT 40SM M07/M10 A2938 RMK AO1 T10711099






000
SXUS55 KMSO 211333
OSOMSO
MONTANA AWOS SUMMARY
NATIONAL WEATHER SERVICE MISSOULA MT
632 AM MST SUN DEC 21 2014

Montana AWOS Reports

MALTA       |KM75 211255Z AUTO 00000KT 40SM M07/M10 A2938 RMK AO1 T10711099






000
SXUS55 KMSO 211323
OSOMSO
MONTANA AWOS SUMMARY
NATIONAL WEATHER SERVICE MISSOULA MT
622 AM MST SUN DEC 21 2014

Montana AWOS Reports

ROUNDUP     |KRPX 211315Z AUTO 00000KT 40SM 02/M06 A2939 RMK AO1 T00171055






000
SXUS55 KMSO 211323
OSOMSO
MONTANA AWOS SUMMARY
NATIONAL WEATHER SERVICE MISSOULA MT
622 AM MST SUN DEC 21 2014

Montana AWOS Reports

ROUNDUP     |KRPX 211315Z AUTO 00000KT 40SM 02/M06 A2939 RMK AO1 T00171055






000
SXUS55 KMSO 211313
OSOMSO
MONTANA AWOS SUMMARY
NATIONAL WEATHER SERVICE MISSOULA MT
613 AM MST SUN DEC 21 2014

Montana AWOS Reports

SCOBEY      |K9S2 211255Z AUTO 00000KT 40SM M08/M11 A2946 RMK AO1 T10771110






000
SXUS55 KMSO 211313
OSOMSO
MONTANA AWOS SUMMARY
NATIONAL WEATHER SERVICE MISSOULA MT
613 AM MST SUN DEC 21 2014

Montana AWOS Reports

SCOBEY      |K9S2 211255Z AUTO 00000KT 40SM M08/M11 A2946 RMK AO1 T10771110






000
SXUS55 KMSO 211304
OSOMSO
MONTANA AWOS SUMMARY
NATIONAL WEATHER SERVICE MISSOULA MT
603 AM MST SUN DEC 21 2014

Montana AWOS Reports

ROUNDUP     |KRPX 211255Z AUTO 19007KT 40SM 02/M06 A2939 RMK AO1 T00221055
LAUREL      |K6S8 211255Z AUTO 21004KT 40SM 04/M08 A2949 RMK AO1 T00391082
TWIN BRIDGES|K7S1 211255Z AUTO 11006KT 25SM 03/M02 A2962 RMK AO1 T00331016






000
SXUS55 KMSO 211304
OSOMSO
MONTANA AWOS SUMMARY
NATIONAL WEATHER SERVICE MISSOULA MT
603 AM MST SUN DEC 21 2014

Montana AWOS Reports

ROUNDUP     |KRPX 211255Z AUTO 19007KT 40SM 02/M06 A2939 RMK AO1 T00221055
LAUREL      |K6S8 211255Z AUTO 21004KT 40SM 04/M08 A2949 RMK AO1 T00391082
TWIN BRIDGES|K7S1 211255Z AUTO 11006KT 25SM 03/M02 A2962 RMK AO1 T00331016






000
SXUS55 KMSO 211243
OSOMSO
MONTANA AWOS SUMMARY
NATIONAL WEATHER SERVICE MISSOULA MT
543 AM MST SUN DEC 21 2014

Montana AWOS Reports

ROUNDUP     |KRPX 211235Z AUTO 20010G15KT 40SM 03/M06 A2940 RMK AO1 T00281055
LAUREL      |K6S8 211235Z AUTO 00000KT 40SM 04/M08 A2949 RMK AO1 T00441077






000
SXUS55 KMSO 211243
OSOMSO
MONTANA AWOS SUMMARY
NATIONAL WEATHER SERVICE MISSOULA MT
543 AM MST SUN DEC 21 2014

Montana AWOS Reports

ROUNDUP     |KRPX 211235Z AUTO 20010G15KT 40SM 03/M06 A2940 RMK AO1 T00281055
LAUREL      |K6S8 211235Z AUTO 00000KT 40SM 04/M08 A2949 RMK AO1 T00441077






000
SXUS55 KMSO 211223
OSOMSO
MONTANA AWOS SUMMARY
NATIONAL WEATHER SERVICE MISSOULA MT
523 AM MST SUN DEC 21 2014

Montana AWOS Reports

ROUNDUP     |KRPX 211215Z AUTO 22006KT 40SM 02/M06 A2941 RMK AO1 T00221055
LAUREL      |K6S8 211215Z AUTO 23004KT 40SM 06/M07 A2951 RMK AO1 T00561071






000
SXUS55 KMSO 211223
OSOMSO
MONTANA AWOS SUMMARY
NATIONAL WEATHER SERVICE MISSOULA MT
523 AM MST SUN DEC 21 2014

Montana AWOS Reports

ROUNDUP     |KRPX 211215Z AUTO 22006KT 40SM 02/M06 A2941 RMK AO1 T00221055
LAUREL      |K6S8 211215Z AUTO 23004KT 40SM 06/M07 A2951 RMK AO1 T00561071






000
SXUS55 KMSO 211143
OSOMSO
MONTANA AWOS SUMMARY
NATIONAL WEATHER SERVICE MISSOULA MT
443 AM MST SUN DEC 21 2014

Montana AWOS Reports

ROUNDUP     |KRPX 211135Z AUTO 00000KT 40SM 01/M07 A2942 RMK AO1 T00061066
LAUREL      |K6S8 211135Z AUTO 22005KT 40SM 04/M07 A2951 RMK AO1 T00441071






000
SXUS55 KMSO 211123
OSOMSO
MONTANA AWOS SUMMARY
NATIONAL WEATHER SERVICE MISSOULA MT
423 AM MST SUN DEC 21 2014

Montana AWOS Reports

ROUNDUP     |KRPX 211115Z AUTO 00000KT 40SM 01/M07 A2943 RMK AO1 T00061066
LAUREL      |K6S8 211115Z AUTO 24008KT 40SM 04/M07 A2952 RMK AO1 T00441071






000
SXUS55 KMSO 211113
OSOMSO
MONTANA AWOS SUMMARY
NATIONAL WEATHER SERVICE MISSOULA MT
412 AM MST SUN DEC 21 2014

Montana AWOS Reports

LAUREL      |K6S8 211055Z AUTO 23006KT 40SM 03/M08 A2953 RMK AO1 T00331077
ROUNDUP     |KRPX 211055Z AUTO 00000KT 40SM 01/M06 A2944 RMK AO1 T00111060
SCOBEY      |K9S2 211055Z AUTO 00000KT 40SM M08/M11 A2951 RMK AO1 T10771110
TWIN BRIDGES|K7S1 211055Z AUTO 10010G16KT 40SM 03/M03 A2963 RMK AO1 T00281027
MALTA       |KM75 211055Z AUTO 00000KT 40SM M07/M10 A2944 RMK AO1 T10711099






000
SXUS55 KMSO 211043
OSOMSO
MONTANA AWOS SUMMARY
NATIONAL WEATHER SERVICE MISSOULA MT
343 AM MST SUN DEC 21 2014

Montana AWOS Reports

LAUREL      |K6S8 211035Z AUTO 23007KT 40SM 03/M08 A2954 RMK AO1 T00281077
ROUNDUP     |KRPX 211035Z AUTO 00000KT 40SM 02/M06 A2945 RMK AO1 T00171060






000
SXUS55 KMSO 211043
OSOMSO
MONTANA AWOS SUMMARY
NATIONAL WEATHER SERVICE MISSOULA MT
343 AM MST SUN DEC 21 2014

Montana AWOS Reports

LAUREL      |K6S8 211035Z AUTO 23007KT 40SM 03/M08 A2954 RMK AO1 T00281077
ROUNDUP     |KRPX 211035Z AUTO 00000KT 40SM 02/M06 A2945 RMK AO1 T00171060






000
SXUS55 KMSO 211023
OSOMSO
MONTANA AWOS SUMMARY
NATIONAL WEATHER SERVICE MISSOULA MT
323 AM MST SUN DEC 21 2014

Montana AWOS Reports

LAUREL      |K6S8 211015Z AUTO 00000KT 40SM 03/M08 A2954 RMK AO1 T00281077
ROUNDUP     |KRPX 211015Z AUTO 00000KT 40SM 02/M06 A2946 RMK AO1 T00171060






000
SXUS55 KMSO 211013
OSOMSO
MONTANA AWOS SUMMARY
NATIONAL WEATHER SERVICE MISSOULA MT
312 AM MST SUN DEC 21 2014

Montana AWOS Reports

LAUREL      |K6S8 210955Z AUTO 00000KT 40SM 02/M08 A2955 RMK AO1 T00221077
ROUNDUP     |KRPX 210955Z AUTO 00000KT 40SM 01/M07 A2947 RMK AO1 T00061066
SCOBEY      |K9S2 210955Z AUTO 00000KT 40SM M08/M11 A2954 RMK AO1 T10771110
TWIN BRIDGES|K7S1 210955Z AUTO 11005KT 40SM 03/M03 A2968 RMK AO1 T00281027
MALTA       |KM75 210955Z AUTO 00000KT 40SM M08/M11 A2947 RMK AO1 T10771105






000
SXUS55 KMSO 211013
OSOMSO
MONTANA AWOS SUMMARY
NATIONAL WEATHER SERVICE MISSOULA MT
312 AM MST SUN DEC 21 2014

Montana AWOS Reports

LAUREL      |K6S8 210955Z AUTO 00000KT 40SM 02/M08 A2955 RMK AO1 T00221077
ROUNDUP     |KRPX 210955Z AUTO 00000KT 40SM 01/M07 A2947 RMK AO1 T00061066
SCOBEY      |K9S2 210955Z AUTO 00000KT 40SM M08/M11 A2954 RMK AO1 T10771110
TWIN BRIDGES|K7S1 210955Z AUTO 11005KT 40SM 03/M03 A2968 RMK AO1 T00281027
MALTA       |KM75 210955Z AUTO 00000KT 40SM M08/M11 A2947 RMK AO1 T10771105






000
SXUS55 KMSO 210943
OSOMSO
MONTANA AWOS SUMMARY
NATIONAL WEATHER SERVICE MISSOULA MT
243 AM MST SUN DEC 21 2014

Montana AWOS Reports

LAUREL      |K6S8 210935Z AUTO 00000KT 40SM 02/M08 A2956 RMK AO1 T00171077
ROUNDUP     |KRPX 210935Z AUTO 00000KT 40SM 01/M07 A2947 RMK AO1 T00061066






000
SXUS55 KMSO 210923
OSOMSO
MONTANA AWOS SUMMARY
NATIONAL WEATHER SERVICE MISSOULA MT
222 AM MST SUN DEC 21 2014

Montana AWOS Reports

LAUREL      |K6S8 210915Z AUTO 21004KT 40SM 02/M08 A2957 RMK AO1 T00171082
ROUNDUP     |KRPX 210915Z AUTO 00000KT 40SM 01/M07 A2948 RMK AO1 T00061066






000
SXUS55 KMSO 210904
OSOMSO
MONTANA AWOS SUMMARY
NATIONAL WEATHER SERVICE MISSOULA MT
203 AM MST SUN DEC 21 2014

Montana AWOS Reports

LAUREL      |K6S8 210855Z AUTO 00000KT 40SM 02/M08 A2958 RMK AO1 T00221082
ROUNDUP     |KRPX 210855Z AUTO 00000KT 40SM 01/M06 A2950 RMK AO1 T00111060
SCOBEY      |K9S2 210855Z AUTO 00000KT 40SM M08/M11 A2957 RMK AO1 T10771110
MALTA       |KM75 210855Z AUTO 00000KT 40SM M08/M11 A2951 RMK AO1 T10771110
TWIN BRIDGES|K7S1 210855Z AUTO 12007KT 40SM 03/M04 A2970 RMK AO1 T00281038






000
SXUS55 KMSO 210853
OSOMSO
MONTANA AWOS SUMMARY
NATIONAL WEATHER SERVICE MISSOULA MT
153 AM MST SUN DEC 21 2014

Montana AWOS Reports

LAUREL      |K6S8 210835Z AUTO 23004KT 40SM 02/M08 A2959 RMK AO1 T00171082






000
SXUS55 KMSO 210843
OSOMSO
MONTANA AWOS SUMMARY
NATIONAL WEATHER SERVICE MISSOULA MT
143 AM MST SUN DEC 21 2014

Montana AWOS Reports

ROUNDUP     |KRPX 210835Z AUTO 00000KT 40SM 02/M06 A2950 RMK AO1 T00171060






000
SXUS55 KMSO 210833
OSOMSO
MONTANA AWOS SUMMARY
NATIONAL WEATHER SERVICE MISSOULA MT
133 AM MST SUN DEC 21 2014

Montana AWOS Reports

LAUREL      |K6S8 210815Z AUTO 00000KT 40SM 02/M08 A2961 RMK AO1 T00171082






000
SXUS55 KMSO 210823
OSOMSO
MONTANA AWOS SUMMARY
NATIONAL WEATHER SERVICE MISSOULA MT
123 AM MST SUN DEC 21 2014

Montana AWOS Reports

ROUNDUP     |KRPX 210815Z AUTO 00000KT 40SM 02/M06 A2953 RMK AO1 T00171060






000
SXUS55 KMSO 210813
OSOMSO
MONTANA AWOS SUMMARY
NATIONAL WEATHER SERVICE MISSOULA MT
113 AM MST SUN DEC 21 2014

Montana AWOS Reports

MALTA       |KM75 210755Z AUTO 00000KT 40SM M08/M11 A2954 RMK AO1 T10771110






000
SXUS55 KMSO 210803
OSOMSO
MONTANA AWOS SUMMARY
NATIONAL WEATHER SERVICE MISSOULA MT
103 AM MST SUN DEC 21 2014

Montana AWOS Reports

LAUREL      |K6S8 210755Z AUTO 00000KT 40SM 01/M08 A2963 RMK AO1 T00111077
SCOBEY      |K9S2 210755Z AUTO 00000KT 40SM M08/M12 A2959 RMK AO1 T10821121
ROUNDUP     |KRPX 210755Z AUTO 00000KT 40SM 02/M07 A2954 RMK AO1 T00171066
TWIN BRIDGES|K7S1 210755Z AUTO 17011G15KT 40SM 03/M04 A2970 RMK AO1 T00331038






000
SXUS55 KMSO 210753
OSOMSO
MONTANA AWOS SUMMARY
NATIONAL WEATHER SERVICE MISSOULA MT
1253 AM MST SUN DEC 21 2014

Montana AWOS Reports

LAUREL      |K6S8 210735Z AUTO 21004KT 40SM 01/M08 A2963 RMK AO1 T00061082






000
SXUS55 KMSO 210743
OSOMSO
MONTANA AWOS SUMMARY
NATIONAL WEATHER SERVICE MISSOULA MT
1242 AM MST SUN DEC 21 2014

Montana AWOS Reports

ROUNDUP     |KRPX 210735Z AUTO 21004KT 40SM 02/M06 A2956 RMK AO1 T00221060






000
SXUS55 KMSO 210723
OSOMSO
MONTANA AWOS SUMMARY
NATIONAL WEATHER SERVICE MISSOULA MT
1223 AM MST SUN DEC 21 2014

Montana AWOS Reports

LAUREL      |K6S8 210715Z AUTO 21008KT 40SM 00/M09 A2964 RMK AO1 T00001088
ROUNDUP     |KRPX 210715Z AUTO 19007KT 40SM 02/M07 A2957 RMK AO1 T00221066






000
SXUS55 KMSO 210713
OSOMSO
MONTANA AWOS SUMMARY
NATIONAL WEATHER SERVICE MISSOULA MT
1213 AM MST SUN DEC 21 2014

Montana AWOS Reports

TWIN BRIDGES|K7S1 210655Z AUTO 14008KT 40SM 03/M04 A2972 RMK AO1 T00331043
MALTA       |KM75 210655Z AUTO 00000KT 40SM M07/M11 A2957 RMK AO1 T10711105






000
SXUS55 KMSO 210703
OSOMSO
MONTANA AWOS SUMMARY
NATIONAL WEATHER SERVICE MISSOULA MT
1203 AM MST SUN DEC 21 2014

Montana AWOS Reports

LAUREL      |K6S8 210655Z AUTO 22004KT 40SM M01/M09 A2966 RMK AO1 T10051088
ROUNDUP     |KRPX 210655Z AUTO 19009G14KT 40SM 02/M06 A2958 RMK AO1 T00221060
SCOBEY      |K9S2 210655Z AUTO 00000KT 40SM M08/M12 A2963 RMK AO1 T10821116






000
SXUS55 KMSO 210643
OSOMSO
MONTANA AWOS SUMMARY
NATIONAL WEATHER SERVICE MISSOULA MT
1143 PM MST SAT DEC 20 2014

Montana AWOS Reports

LAUREL      |K6S8 210635Z AUTO 00000KT 40SM M01/M09 A2967 RMK AO1 T10101088
ROUNDUP     |KRPX 210635Z AUTO 18006KT 40SM 02/M06 A2959 RMK AO1 T00171060






000
SXUS55 KMSO 210643
OSOMSO
MONTANA AWOS SUMMARY
NATIONAL WEATHER SERVICE MISSOULA MT
1143 PM MST SAT DEC 20 2014

Montana AWOS Reports

LAUREL      |K6S8 210635Z AUTO 00000KT 40SM M01/M09 A2967 RMK AO1 T10101088
ROUNDUP     |KRPX 210635Z AUTO 18006KT 40SM 02/M06 A2959 RMK AO1 T00171060






000
SXUS55 KMSO 210624
OSOMSO
MONTANA AWOS SUMMARY
NATIONAL WEATHER SERVICE MISSOULA MT
1123 PM MST SAT DEC 20 2014

Montana AWOS Reports

LAUREL      |K6S8 210615Z AUTO 00000KT 40SM M01/M09 A2969 RMK AO1 T10101093
ROUNDUP     |KRPX 210615Z AUTO 19005KT 40SM 02/M06 A2959 RMK AO1 T00171060






000
SXUS55 KMSO 210613
OSOMSO
MONTANA AWOS SUMMARY
NATIONAL WEATHER SERVICE MISSOULA MT
1113 PM MST SAT DEC 20 2014

Montana AWOS Reports

SCOBEY      |K9S2 210555Z AUTO 00000KT 40SM M06/M10 A2965 RMK AO1 T10601099
MALTA       |KM75 210555Z AUTO 00000KT 40SM M07/M11 A2960 RMK AO1 T10711105






000
SXUS55 KMSO 210543
OSOMSO
MONTANA AWOS SUMMARY
NATIONAL WEATHER SERVICE MISSOULA MT
1043 PM MST SAT DEC 20 2014

Montana AWOS Reports

LAUREL      |K6S8 210535Z AUTO 21004KT 40SM M01/M09 A2970 RMK AO1 T10101093
ROUNDUP     |KRPX 210535Z AUTO 19009G14KT 40SM 02/M06 A2961 RMK AO1 T00171060






000
SXUS55 KMSO 210523
OSOMSO
MONTANA AWOS SUMMARY
NATIONAL WEATHER SERVICE MISSOULA MT
1023 PM MST SAT DEC 20 2014

Montana AWOS Reports

LAUREL      |K6S8 210515Z AUTO 21008KT 40SM M01/M09 A2970 RMK AO1 T10101093
ROUNDUP     |KRPX 210515Z AUTO 00000KT 40SM 01/M06 A2962 RMK AO1 T00111060






000
SXUS55 KMSO 210513
OSOMSO
MONTANA AWOS SUMMARY
NATIONAL WEATHER SERVICE MISSOULA MT
1013 PM MST SAT DEC 20 2014

Montana AWOS Reports

MALTA       |KM75 210455Z AUTO 00000KT 40SM M07/M10 A2962 RMK AO1 T10661099






000
SXUS55 KMSO 210443
OSOMSO
MONTANA AWOS SUMMARY
NATIONAL WEATHER SERVICE MISSOULA MT
943 PM MST SAT DEC 20 2014

Montana AWOS Reports

LAUREL      |K6S8 210435Z AUTO 22007KT 40SM M01/M09 A2971 RMK AO1 T10101088
ROUNDUP     |KRPX 210435Z AUTO 20008KT 40SM 02/M06 A2962 RMK AO1 T00221055






000
SXUS55 KMSO 210443
OSOMSO
MONTANA AWOS SUMMARY
NATIONAL WEATHER SERVICE MISSOULA MT
943 PM MST SAT DEC 20 2014

Montana AWOS Reports

LAUREL      |K6S8 210435Z AUTO 22007KT 40SM M01/M09 A2971 RMK AO1 T10101088
ROUNDUP     |KRPX 210435Z AUTO 20008KT 40SM 02/M06 A2962 RMK AO1 T00221055






000
SXUS55 KMSO 210424
OSOMSO
MONTANA AWOS SUMMARY
NATIONAL WEATHER SERVICE MISSOULA MT
923 PM MST SAT DEC 20 2014

Montana AWOS Reports

LAUREL      |K6S8 210415Z AUTO 21005KT 40SM M01/M09 A2972 RMK AO1 T10101088
ROUNDUP     |KRPX 210415Z AUTO 22006KT 40SM 02/M06 A2964 RMK AO1 T00171060






000
SXUS55 KMSO 210424
OSOMSO
MONTANA AWOS SUMMARY
NATIONAL WEATHER SERVICE MISSOULA MT
923 PM MST SAT DEC 20 2014

Montana AWOS Reports

LAUREL      |K6S8 210415Z AUTO 21005KT 40SM M01/M09 A2972 RMK AO1 T10101088
ROUNDUP     |KRPX 210415Z AUTO 22006KT 40SM 02/M06 A2964 RMK AO1 T00171060






000
SXUS55 KMSO 210413
OSOMSO
MONTANA AWOS SUMMARY
NATIONAL WEATHER SERVICE MISSOULA MT
913 PM MST SAT DEC 20 2014

Montana AWOS Reports

SCOBEY      |K9S2 210355Z AUTO 00000KT 40SM M04/M09 A2970 RMK AO1 T10431093
MALTA       |KM75 210355Z AUTO 00000KT 40SM M07/M11 A2965 RMK AO1 T10711105
TWIN BRIDGES|K7S1 210355Z AUTO 18007KT 40SM 02/M04 A2978 RMK AO1 T00221043






000
SXUS55 KMSO 210413
OSOMSO
MONTANA AWOS SUMMARY
NATIONAL WEATHER SERVICE MISSOULA MT
913 PM MST SAT DEC 20 2014

Montana AWOS Reports

SCOBEY      |K9S2 210355Z AUTO 00000KT 40SM M04/M09 A2970 RMK AO1 T10431093
MALTA       |KM75 210355Z AUTO 00000KT 40SM M07/M11 A2965 RMK AO1 T10711105
TWIN BRIDGES|K7S1 210355Z AUTO 18007KT 40SM 02/M04 A2978 RMK AO1 T00221043






000
SXUS55 KMSO 210403
OSOMSO
MONTANA AWOS SUMMARY
NATIONAL WEATHER SERVICE MISSOULA MT
903 PM MST SAT DEC 20 2014

Montana AWOS Reports

LAUREL      |K6S8 210355Z AUTO 21006KT 40SM M01/M09 A2974 RMK AO1 T10101088
ROUNDUP     |KRPX 210355Z AUTO 19007KT 40SM 01/M06 A2964 RMK AO1 T00111060






000
SXUS55 KMSO 210403
OSOMSO
MONTANA AWOS SUMMARY
NATIONAL WEATHER SERVICE MISSOULA MT
903 PM MST SAT DEC 20 2014

Montana AWOS Reports

LAUREL      |K6S8 210355Z AUTO 21006KT 40SM M01/M09 A2974 RMK AO1 T10101088
ROUNDUP     |KRPX 210355Z AUTO 19007KT 40SM 01/M06 A2964 RMK AO1 T00111060






000
SXUS55 KMSO 210353
OSOMSO
MONTANA AWOS SUMMARY
NATIONAL WEATHER SERVICE MISSOULA MT
853 PM MST SAT DEC 20 2014

Montana AWOS Reports

LAUREL      |K6S8 210335Z AUTO 21008KT 40SM M01/M08 A2974 RMK AO1 T10051082
ROUNDUP     |KRPX 210335Z AUTO 20005KT 40SM 01/M06 A2965 RMK AO1 T00111060
MALTA       |KM75 210255Z AUTO 00000KT 40SM M05/M08 A2967 RMK AO1 T10491082






000
SXUS55 KMSO 210353
OSOMSO
MONTANA AWOS SUMMARY
NATIONAL WEATHER SERVICE MISSOULA MT
853 PM MST SAT DEC 20 2014

Montana AWOS Reports

LAUREL      |K6S8 210335Z AUTO 21008KT 40SM M01/M08 A2974 RMK AO1 T10051082
ROUNDUP     |KRPX 210335Z AUTO 20005KT 40SM 01/M06 A2965 RMK AO1 T00111060
MALTA       |KM75 210255Z AUTO 00000KT 40SM M05/M08 A2967 RMK AO1 T10491082






000
SXUS55 KMSO 210323
OSOMSO
MONTANA AWOS SUMMARY
NATIONAL WEATHER SERVICE MISSOULA MT
823 PM MST SAT DEC 20 2014

Montana AWOS Reports

ROUNDUP     |KRPX 210315Z AUTO 20005KT 40SM 01/M06 A2966 RMK AO1 T00111060
LAUREL      |K6S8 210315Z AUTO 21006KT 40SM 01/M08 A2975 RMK AO1 T00061082
TWIN BRIDGES|K7S1 210255Z AUTO 16004KT 40SM 01/M05 A2978 RMK AO1 T00111049






000
SXUS55 KMSO 210323
OSOMSO
MONTANA AWOS SUMMARY
NATIONAL WEATHER SERVICE MISSOULA MT
823 PM MST SAT DEC 20 2014

Montana AWOS Reports

ROUNDUP     |KRPX 210315Z AUTO 20005KT 40SM 01/M06 A2966 RMK AO1 T00111060
LAUREL      |K6S8 210315Z AUTO 21006KT 40SM 01/M08 A2975 RMK AO1 T00061082
TWIN BRIDGES|K7S1 210255Z AUTO 16004KT 40SM 01/M05 A2978 RMK AO1 T00111049






000
SXUS55 KMSO 210314
OSOMSO
MONTANA AWOS SUMMARY
NATIONAL WEATHER SERVICE MISSOULA MT
813 PM MST SAT DEC 20 2014

Montana AWOS Reports

SCOBEY      |K9S2 210255Z AUTO 00000KT 40SM M03/M08 A2970 RMK AO1 T10321077






000
SXUS55 KMSO 210244
OSOMSO
MONTANA AWOS SUMMARY
NATIONAL WEATHER SERVICE MISSOULA MT
743 PM MST SAT DEC 20 2014

Montana AWOS Reports

ROUNDUP     |KRPX 210235Z AUTO 21005KT 40SM 02/M06 A2968 RMK AO1 T00171060
LAUREL      |K6S8 210235Z AUTO 21005KT 40SM 01/M08 A2977 RMK AO1 T00061082






000
SXUS55 KMSO 210233
OSOMSO
MONTANA AWOS SUMMARY
NATIONAL WEATHER SERVICE MISSOULA MT
732 PM MST SAT DEC 20 2014

Montana AWOS Reports

MALTA       |KM75 210155Z AUTO 00000KT 40SM M06/M09 A2970 RMK AO1 T10551093






000
SXUS55 KMSO 210223
OSOMSO
MONTANA AWOS SUMMARY
NATIONAL WEATHER SERVICE MISSOULA MT
722 PM MST SAT DEC 20 2014

Montana AWOS Reports

LAUREL      |K6S8 210215Z AUTO 20008KT 40SM 01/M08 A2977 RMK AO1 T00111077
ROUNDUP     |KRPX 210215Z AUTO 21007KT 40SM 02/M06 A2969 RMK AO1 T00221060






000
SXUS55 KMSO 210203
OSOMSO
MONTANA AWOS SUMMARY
NATIONAL WEATHER SERVICE MISSOULA MT
703 PM MST SAT DEC 20 2014

Montana AWOS Reports

ROUNDUP     |KRPX 210155Z AUTO 00000KT 40SM 02/M06 A2970 RMK AO1 T00221055
TWIN BRIDGES|K7S1 210155Z AUTO 00000KT 40SM 01/M05 A2980 RMK AO1 T00111049
LAUREL      |K6S8 210155Z AUTO 19005KT 40SM 01/M08 A2978 RMK AO1 T00111077
SCOBEY      |K9S2 210155Z AUTO 00000KT 40SM M03/M08 A2972 RMK AO1 T10271077






000
SXUS55 KMSO 210153
OSOMSO
MONTANA AWOS SUMMARY
NATIONAL WEATHER SERVICE MISSOULA MT
653 PM MST SAT DEC 20 2014

Montana AWOS Reports

LAUREL      |K6S8 210135Z AUTO 20005KT 40SM 00/M08 A2979 RMK AO1 T00001082






000
SXUS55 KMSO 210143
OSOMSO
MONTANA AWOS SUMMARY
NATIONAL WEATHER SERVICE MISSOULA MT
643 PM MST SAT DEC 20 2014

Montana AWOS Reports

ROUNDUP     |KRPX 210135Z AUTO 00000KT 40SM 03/M06 A2970 RMK AO1 T00281060






000
SXUS55 KMSO 210123
OSOMSO
MONTANA AWOS SUMMARY
NATIONAL WEATHER SERVICE MISSOULA MT
622 PM MST SAT DEC 20 2014

Montana AWOS Reports

ROUNDUP     |KRPX 210115Z AUTO 00000KT 40SM 02/M06 A2970 RMK AO1 T00221055
LAUREL      |K6S8 210115Z AUTO 21004KT 40SM M01/M08 A2979 RMK AO1 T10051082






000
SXUS55 KMSO 210123
OSOMSO
MONTANA AWOS SUMMARY
NATIONAL WEATHER SERVICE MISSOULA MT
622 PM MST SAT DEC 20 2014

Montana AWOS Reports

ROUNDUP     |KRPX 210115Z AUTO 00000KT 40SM 02/M06 A2970 RMK AO1 T00221055
LAUREL      |K6S8 210115Z AUTO 21004KT 40SM M01/M08 A2979 RMK AO1 T10051082






000
SXUS55 KMSO 210104
OSOMSO
MONTANA AWOS SUMMARY
NATIONAL WEATHER SERVICE MISSOULA MT
603 PM MST SAT DEC 20 2014

Montana AWOS Reports

LAUREL      |K6S8 210055Z AUTO 00000KT 40SM M01/M08 A2980 RMK AO1 T10051082
ROUNDUP     |KRPX 210055Z AUTO 00000KT 40SM 03/M06 A2971 RMK AO1 T00281055
SCOBEY      |K9S2 210055Z AUTO 00000KT 40SM M01/M06 A2972 RMK AO1 T10101055
TWIN BRIDGES|K7S1 210055Z AUTO 00000KT 40SM 02/M05 A2982 RMK AO1 T00171049






000
SXUS55 KMSO 210104
OSOMSO
MONTANA AWOS SUMMARY
NATIONAL WEATHER SERVICE MISSOULA MT
603 PM MST SAT DEC 20 2014

Montana AWOS Reports

LAUREL      |K6S8 210055Z AUTO 00000KT 40SM M01/M08 A2980 RMK AO1 T10051082
ROUNDUP     |KRPX 210055Z AUTO 00000KT 40SM 03/M06 A2971 RMK AO1 T00281055
SCOBEY      |K9S2 210055Z AUTO 00000KT 40SM M01/M06 A2972 RMK AO1 T10101055
TWIN BRIDGES|K7S1 210055Z AUTO 00000KT 40SM 02/M05 A2982 RMK AO1 T00171049






000
SXUS55 KMSO 210054
OSOMSO
MONTANA AWOS SUMMARY
NATIONAL WEATHER SERVICE MISSOULA MT
553 PM MST SAT DEC 20 2014

Montana AWOS Reports

LAUREL      |K6S8 210035Z AUTO 00000KT 40SM 01/M08 A2981 RMK AO1 T00061077






000
SXUS55 KMSO 210043
OSOMSO
MONTANA AWOS SUMMARY
NATIONAL WEATHER SERVICE MISSOULA MT
543 PM MST SAT DEC 20 2014

Montana AWOS Reports

ROUNDUP     |KRPX 210035Z AUTO 00000KT 40SM 03/M06 A2972 RMK AO1 T00331055






000
SXUS55 KMSO 210033
OSOMSO
MONTANA AWOS SUMMARY
NATIONAL WEATHER SERVICE MISSOULA MT
532 PM MST SAT DEC 20 2014

Montana AWOS Reports

MALTA       |KM75 202355Z AUTO 00000KT 40SM 00/M06 A2973 RMK AO1 T00001060






000
SXUS55 KMSO 210023
OSOMSO
MONTANA AWOS SUMMARY
NATIONAL WEATHER SERVICE MISSOULA MT
522 PM MST SAT DEC 20 2014

Montana AWOS Reports

LAUREL      |K6S8 210015Z AUTO 00000KT 40SM 01/M07 A2982 RMK AO1 T00111071
ROUNDUP     |KRPX 210015Z AUTO 00000KT 40SM 04/M06 A2973 RMK AO1 T00391055






000
SXUS55 KMSO 210004
OSOMSO
MONTANA AWOS SUMMARY
NATIONAL WEATHER SERVICE MISSOULA MT
503 PM MST SAT DEC 20 2014

Montana AWOS Reports

TWIN BRIDGES|K7S1 202355Z AUTO 10005KT 40SM 02/M05 A2983 RMK AO1 T00171049
LAUREL      |K6S8 202355Z AUTO 00000KT 40SM 01/M08 A2982 RMK AO1 T00111077
ROUNDUP     |KRPX 202355Z AUTO 00000KT 40SM 04/M06 A2973 RMK AO1 T00441055
SCOBEY      |K9S2 202355Z AUTO 00000KT 40SM 01/M04 A2973 RMK AO1 T00111043






000
SXUS55 KMSO 202343
OSOMSO
MONTANA AWOS SUMMARY
NATIONAL WEATHER SERVICE MISSOULA MT
443 PM MST SAT DEC 20 2014

Montana AWOS Reports

LAUREL      |K6S8 202335Z AUTO 00000KT 40SM 02/M07 A2982 RMK AO1 T00221071
ROUNDUP     |KRPX 202335Z AUTO 00000KT 40SM 04/M06 A2973 RMK AO1 T00441060






000
SXUS55 KMSO 202323
OSOMSO
MONTANA AWOS SUMMARY
NATIONAL WEATHER SERVICE MISSOULA MT
423 PM MST SAT DEC 20 2014

Montana AWOS Reports

LAUREL      |K6S8 202315Z AUTO 00000KT 40SM 03/M06 A2983 RMK AO1 T00331060
ROUNDUP     |KRPX 202315Z AUTO 00000KT 40SM 04/M07 A2974 RMK AO1 T00441066






000
SXUS55 KMSO 202313
OSOMSO
MONTANA AWOS SUMMARY
NATIONAL WEATHER SERVICE MISSOULA MT
412 PM MST SAT DEC 20 2014

Montana AWOS Reports

LAUREL      |K6S8 202255Z AUTO 00000KT 40SM 04/M07 A2982 RMK AO1 T00441066
SCOBEY      |K9S2 202255Z AUTO 00000KT 40SM 02/M03 A2974 RMK AO1 T00221032
TWIN BRIDGES|K7S1 202255Z AUTO 00000KT 40SM 01/M06 A2985 RMK AO1 T00111055
MALTA       |KM75 202255Z AUTO 00000KT 40SM 03/M05 A2974 RMK AO1 T00281049






000
SXUS55 KMSO 202304
OSOMSO
MONTANA AWOS SUMMARY
NATIONAL WEATHER SERVICE MISSOULA MT
403 PM MST SAT DEC 20 2014

Montana AWOS Reports

ROUNDUP     |KRPX 202255Z AUTO 00000KT 40SM 04/M07 A2974 RMK AO1 T00441066






000
SXUS55 KMSO 202243
OSOMSO
MONTANA AWOS SUMMARY
NATIONAL WEATHER SERVICE MISSOULA MT
343 PM MST SAT DEC 20 2014

Montana AWOS Reports

ROUNDUP     |KRPX 202235Z AUTO 00000KT 40SM 05/M07 A2974 RMK AO1 T00501066
LAUREL      |K6S8 202235Z AUTO 00000KT 40SM 04/M07 A2982 RMK AO1 T00391066






000
SXUS55 KMSO 202233
OSOMSO
MONTANA AWOS SUMMARY
NATIONAL WEATHER SERVICE MISSOULA MT
332 PM MST SAT DEC 20 2014

Montana AWOS Reports

LAUREL      |K6S8 202215Z AUTO 24004KT 40SM 04/M07 A2983 RMK AO1 T00391071
ROUNDUP     |KRPX 202215Z AUTO 00000KT 40SM 06/M07 A2975 RMK AO1 T00561066






000
SXUS55 KMSO 202204
OSOMSO
MONTANA AWOS SUMMARY
NATIONAL WEATHER SERVICE MISSOULA MT
303 PM MST SAT DEC 20 2014

Montana AWOS Reports

LAUREL      |K6S8 202155Z AUTO 00000KT 40SM 03/M07 A2983 RMK AO1 T00331066
ROUNDUP     |KRPX 202155Z AUTO 19005KT 40SM 06/M07 A2975 RMK AO1 T00561071
SCOBEY      |K9S2 202155Z AUTO 24009G13KT 40SM 03/M03 A2974 RMK AO1 T00331027
TWIN BRIDGES|K7S1 202155Z AUTO 11005KT 40SM 02/M06 A2987 RMK AO1 T00171055
MALTA       |KM75 202155Z AUTO 00000KT 40SM 06/M03 A2975 RMK AO1 T00611032






000
SXUS55 KMSO 202143
OSOMSO
MONTANA AWOS SUMMARY
NATIONAL WEATHER SERVICE MISSOULA MT
243 PM MST SAT DEC 20 2014

Montana AWOS Reports

ROUNDUP     |KRPX 202135Z AUTO 19006KT 40SM 06/M06 A2975 RMK AO1 T00611060
LAUREL      |K6S8 202135Z AUTO 00000KT 40SM 03/M07 A2983 RMK AO1 T00331066






000
SXUS55 KMSO 202123
OSOMSO
MONTANA AWOS SUMMARY
NATIONAL WEATHER SERVICE MISSOULA MT
223 PM MST SAT DEC 20 2014

Montana AWOS Reports

ROUNDUP     |KRPX 202115Z AUTO 00000KT 40SM 07/M07 A2975 RMK AO1 T00671066
LAUREL      |K6S8 202115Z AUTO 00000KT 40SM 03/M07 A2983 RMK AO1 T00331066






000
SXUS55 KMSO 202113
OSOMSO
MONTANA AWOS SUMMARY
NATIONAL WEATHER SERVICE MISSOULA MT
212 PM MST SAT DEC 20 2014

Montana AWOS Reports

LAUREL      |K6S8 202055Z AUTO 00000KT 40SM 03/M07 A2984 RMK AO1 T00331066
ROUNDUP     |KRPX 202055Z AUTO 21005KT 40SM 07/M08 A2976 RMK AO1 T00671077
SCOBEY      |K9S2 202055Z AUTO 25011G15KT 40SM 03/M03 A2973 RMK AO1 T00331027
TWIN BRIDGES|K7S1 202055Z AUTO 11005KT 40SM 03/M05 A2987 RMK AO1 T00281049
MALTA       |KM75 202055Z AUTO 22004KT 40SM 08/M03 A2975 RMK AO1 T00781032






000
SXUS55 KMSO 202044
OSOMSO
MONTANA AWOS SUMMARY
NATIONAL WEATHER SERVICE MISSOULA MT
143 PM MST SAT DEC 20 2014

Montana AWOS Reports

LAUREL      |K6S8 202035Z AUTO 20004KT 40SM 03/M07 A2985 RMK AO1 T00281071
ROUNDUP     |KRPX 202035Z AUTO 00000KT 40SM 07/M07 A2976 RMK AO1 T00721071






000
SXUS55 KMSO 202023
OSOMSO
MONTANA AWOS SUMMARY
NATIONAL WEATHER SERVICE MISSOULA MT
122 PM MST SAT DEC 20 2014

Montana AWOS Reports

LAUREL      |K6S8 202015Z AUTO 00000KT 40SM 03/M07 A2986 RMK AO1 T00281071
ROUNDUP     |KRPX 202015Z AUTO 23011G18KT 40SM 08/M08 A2976 RMK AO1 T00781077






000
SXUS55 KMSO 202013
OSOMSO
MONTANA AWOS SUMMARY
NATIONAL WEATHER SERVICE MISSOULA MT
113 PM MST SAT DEC 20 2014

Montana AWOS Reports

LAUREL      |K6S8 201955Z AUTO 00000KT 40SM 03/M07 A2986 RMK AO1 T00281071
ROUNDUP     |KRPX 201955Z AUTO 23008KT 40SM 07/M08 A2977 RMK AO1 T00721077
TWIN BRIDGES|K7S1 201955Z AUTO 18010G14KT 40SM 02/M06 A2989 RMK AO1 T00171055
MALTA       |KM75 201955Z AUTO 26010G15KT 40SM 07/M04 A2976 RMK AO1 T00721043






000
SXUS55 KMSO 202003
OSOMSO
MONTANA AWOS SUMMARY
NATIONAL WEATHER SERVICE MISSOULA MT
102 PM MST SAT DEC 20 2014

Montana AWOS Reports

SCOBEY      |K9S2 201955Z AUTO 23007KT 40SM 03/M02 A2974 RMK AO1 T00281016






000
SXUS55 KMSO 201943
OSOMSO
MONTANA AWOS SUMMARY
NATIONAL WEATHER SERVICE MISSOULA MT
1243 PM MST SAT DEC 20 2014

Montana AWOS Reports

LAUREL      |K6S8 201935Z AUTO 18005KT 40SM 03/M07 A2987 RMK AO1 T00281071
ROUNDUP     |KRPX 201935Z AUTO 23013G18KT 40SM 08/M08 A2977 RMK AO1 T00831077






000
SXUS55 KMSO 201923
OSOMSO
MONTANA AWOS SUMMARY
NATIONAL WEATHER SERVICE MISSOULA MT
1223 PM MST SAT DEC 20 2014

Montana AWOS Reports

LAUREL      |K6S8 201915Z AUTO 19004KT 40SM 03/M07 A2987 RMK AO1 T00281071
ROUNDUP     |KRPX 201915Z AUTO 40SM 08/M08 A2978 RMK AO1 T00831077






000
SXUS55 KMSO 201903
OSOMSO
MONTANA AWOS SUMMARY
NATIONAL WEATHER SERVICE MISSOULA MT
1203 PM MST SAT DEC 20 2014

Montana AWOS Reports

SCOBEY      |K9S2 201855Z AUTO 20006KT 7SM 02/M02 A2976 RMK AO1 T00171021
LAUREL      |K6S8 201855Z AUTO 19005KT 40SM 02/M08 A2989 RMK AO1 T00221077
ROUNDUP     |KRPX 201855Z AUTO 24013G22KT 40SM 08/M08 A2978 RMK AO1 T00781077
TWIN BRIDGES|K7S1 201855Z AUTO 12005KT 40SM 01/M06 A2992 RMK AO1 T00061060
MALTA       |KM75 201855Z AUTO 40SM 06/M03 A2978 RMK AO1 T00561032






000
SXUS55 KMSO 201823
OSOMSO
MONTANA AWOS SUMMARY
NATIONAL WEATHER SERVICE MISSOULA MT
1123 AM MST SAT DEC 20 2014

Montana AWOS Reports

LAUREL      |K6S8 201815Z AUTO 00000KT 40SM 01/M08 A2990 RMK AO1 T00111077
ROUNDUP     |KRPX 201815Z AUTO 24011KT 40SM 06/M09 A2980 RMK AO1 T00561088






000
SXUS55 KMSO 201803
OSOMSO
MONTANA AWOS SUMMARY
NATIONAL WEATHER SERVICE MISSOULA MT
1103 AM MST SAT DEC 20 2014

Montana AWOS Reports

ROUNDUP     |KRPX 201755Z AUTO 40SM 06/M09 A2980 RMK AO1 T00611088
SCOBEY      |K9S2 201755Z AUTO 00000KT 40SM 02/M03 A2978 RMK AO1 T00171027
TWIN BRIDGES|K7S1 201755Z AUTO 10005KT 40SM 01/M07 A2995 RMK AO1 T00061066
LAUREL      |K6S8 201755Z AUTO 00000KT 40SM 01/M08 A2990 RMK AO1 T00061082
MALTA       |KM75 201755Z AUTO 24008KT 40SM 03/M03 A2979 RMK AO1 T00331027






000
SXUS55 KMSO 201743
OSOMSO
MONTANA AWOS SUMMARY
NATIONAL WEATHER SERVICE MISSOULA MT
1043 AM MST SAT DEC 20 2014

Montana AWOS Reports

ROUNDUP     |KRPX 201735Z AUTO 24012G18KT 40SM 06/M08 A2981 RMK AO1 T00561077
LAUREL      |K6S8 201735Z AUTO 00000KT 40SM 01/M08 A2991 RMK AO1 T00061082






000
SXUS55 KMSO 201733
OSOMSO
MONTANA AWOS SUMMARY
NATIONAL WEATHER SERVICE MISSOULA MT
1033 AM MST SAT DEC 20 2014

Montana AWOS Reports

LAUREL      |K6S8 201715Z AUTO 00000KT 40SM 01/M08 A2991 RMK AO1 T00061082
ROUNDUP     |KRPX 201715Z AUTO 00000KT 40SM 03/M06 A2982 RMK AO1 T00331055






000
SXUS55 KMSO 201713
OSOMSO
MONTANA AWOS SUMMARY
NATIONAL WEATHER SERVICE MISSOULA MT
1013 AM MST SAT DEC 20 2014

Montana AWOS Reports

SCOBEY      |K9S2 201655Z AUTO 00000KT 25SM 00/M02 A2978 RMK AO1 T00001021
MALTA       |KM75 201655Z AUTO 00000KT 40SM 01/M03 A2981 RMK AO1 T00061027






000
SXUS55 KMSO 201703
OSOMSO
MONTANA AWOS SUMMARY
NATIONAL WEATHER SERVICE MISSOULA MT
1003 AM MST SAT DEC 20 2014

Montana AWOS Reports

ROUNDUP     |KRPX 201655Z AUTO 00000KT 40SM 03/M07 A2982 RMK AO1 T00281071
LAUREL      |K6S8 201655Z AUTO 00000KT 40SM M01/M09 A2990 RMK AO1 T10051088
TWIN BRIDGES|K7S1 201655Z AUTO 11005KT 40SM M01/M07 A2995 RMK AO1 T10101071






000
SXUS55 KMSO 201643
OSOMSO
MONTANA AWOS SUMMARY
NATIONAL WEATHER SERVICE MISSOULA MT
943 AM MST SAT DEC 20 2014

Montana AWOS Reports

ROUNDUP     |KRPX 201635Z AUTO 18006KT 40SM 03/M06 A2982 RMK AO1 T00281060
LAUREL      |K6S8 201635Z AUTO 00000KT 40SM M01/M09 A2991 RMK AO1 T10101093






000
SXUS55 KMSO 201633
OSOMSO
MONTANA AWOS SUMMARY
NATIONAL WEATHER SERVICE MISSOULA MT
933 AM MST SAT DEC 20 2014

Montana AWOS Reports

LAUREL      |K6S8 201615Z AUTO 00000KT 40SM M02/M10 A2990 RMK AO1 T10161099






000
SXUS55 KMSO 201623
OSOMSO
MONTANA AWOS SUMMARY
NATIONAL WEATHER SERVICE MISSOULA MT
922 AM MST SAT DEC 20 2014

Montana AWOS Reports

ROUNDUP     |KRPX 201615Z AUTO 00000KT 40SM 01/M06 A2983 RMK AO1 T00111060






000
SXUS55 KMSO 201614
OSOMSO
MONTANA AWOS SUMMARY
NATIONAL WEATHER SERVICE MISSOULA MT
913 AM MST SAT DEC 20 2014

Montana AWOS Reports

TWIN BRIDGES|K7S1 201555Z AUTO 00000KT 40SM M03/M08 A2994 RMK AO1 T10321077
SCOBEY      |K9S2 201555Z AUTO 00000KT 10SM M04/M07 A2978 RMK AO1 T10431071
MALTA       |KM75 201555Z AUTO 00000KT 40SM M01/M04 A2981 RMK AO1 T10101043






000
SXUS55 KMSO 201603
OSOMSO
MONTANA AWOS SUMMARY
NATIONAL WEATHER SERVICE MISSOULA MT
903 AM MST SAT DEC 20 2014

Montana AWOS Reports

ROUNDUP     |KRPX 201555Z AUTO 00000KT 40SM 01/M07 A2982 RMK AO1 T00061066
LAUREL      |K6S8 201555Z AUTO 00000KT 40SM M02/M09 A2990 RMK AO1 T10211093






000
SXUS55 KMSO 201553
OSOMSO
MONTANA AWOS SUMMARY
NATIONAL WEATHER SERVICE MISSOULA MT
853 AM MST SAT DEC 20 2014

Montana AWOS Reports

LAUREL      |K6S8 201535Z AUTO 00000KT 40SM M03/M10 A2990 RMK AO1 T10271099
ROUNDUP     |KRPX 201535Z AUTO 19008KT 40SM 01/M06 A2981 RMK AO1 T00111060






000
SXUS55 KMSO 201523
OSOMSO
MONTANA AWOS SUMMARY
NATIONAL WEATHER SERVICE MISSOULA MT
823 AM MST SAT DEC 20 2014

Montana AWOS Reports

LAUREL      |K6S8 201515Z AUTO 00000KT 40SM M03/M10 A2991 RMK AO1 T10271099
ROUNDUP     |KRPX 201515Z AUTO 22011G15KT 40SM 02/M07 A2982 RMK AO1 T00171066






000
SXUS55 KMSO 201514
OSOMSO
MONTANA AWOS SUMMARY
NATIONAL WEATHER SERVICE MISSOULA MT
813 AM MST SAT DEC 20 2014

Montana AWOS Reports

TWIN BRIDGES|K7S1 201455Z AUTO 00000KT 40SM M04/M09 A2995 RMK AO1 T10431088
SCOBEY      |K9S2 201455Z AUTO 00000KT 15SM M04/M07 A2978 RMK AO1 T10431071
MALTA       |KM75 201455Z AUTO 00000KT 40SM M01/M03 A2980 RMK AO1 T10051032






000
SXUS55 KMSO 201503
OSOMSO
MONTANA AWOS SUMMARY
NATIONAL WEATHER SERVICE MISSOULA MT
803 AM MST SAT DEC 20 2014

Montana AWOS Reports

LAUREL      |K6S8 201455Z AUTO 00000KT 40SM M03/M11 A2991 RMK AO1 T10271105
ROUNDUP     |KRPX 201455Z AUTO 23006KT 40SM 01/M07 A2982 RMK AO1 T00111071






000
SXUS55 KMSO 201443
OSOMSO
MONTANA AWOS SUMMARY
NATIONAL WEATHER SERVICE MISSOULA MT
743 AM MST SAT DEC 20 2014

Montana AWOS Reports

LAUREL      |K6S8 201435Z AUTO 22004KT 40SM M03/M11 A2990 RMK AO1 T10321105
ROUNDUP     |KRPX 201435Z AUTO 21007KT 40SM 00/M07 A2982 RMK AO1 T00001066






000
SXUS55 KMSO 201423
OSOMSO
MONTANA AWOS SUMMARY
NATIONAL WEATHER SERVICE MISSOULA MT
722 AM MST SAT DEC 20 2014

Montana AWOS Reports

LAUREL      |K6S8 201415Z AUTO 00000KT 40SM M03/M11 A2991 RMK AO1 T10321105
ROUNDUP     |KRPX 201415Z AUTO 21005KT 40SM 03/M06 A2982 RMK AO1 T00331060






000
SXUS55 KMSO 201404
OSOMSO
MONTANA AWOS SUMMARY
NATIONAL WEATHER SERVICE MISSOULA MT
703 AM MST SAT DEC 20 2014

Montana AWOS Reports

ROUNDUP     |KRPX 201355Z AUTO 23013G22KT 40SM 04/M07 A2981 RMK AO1 T00391071
LAUREL      |K6S8 201355Z AUTO 00000KT 40SM M03/M11 A2990 RMK AO1 T10271105
TWIN BRIDGES|K7S1 201355Z AUTO 00000KT 40SM M05/M09 A2996 RMK AO1 T10491093
SCOBEY      |K9S2 201355Z AUTO 00000KT 15SM M03/M06 A2978 RMK AO1 T10321060
MALTA       |KM75 201355Z AUTO 00000KT 40SM M03/M06 A2979 RMK AO1 T10271055






000
SXUS55 KMSO 201353
OSOMSO
MONTANA AWOS SUMMARY
NATIONAL WEATHER SERVICE MISSOULA MT
653 AM MST SAT DEC 20 2014

Montana AWOS Reports

LAUREL      |K6S8 201335Z AUTO 22006KT 40SM M03/M11 A2989 RMK AO1 T10271105






000
SXUS55 KMSO 201343
OSOMSO
MONTANA AWOS SUMMARY
NATIONAL WEATHER SERVICE MISSOULA MT
643 AM MST SAT DEC 20 2014

Montana AWOS Reports

ROUNDUP     |KRPX 201335Z AUTO 25014G21KT 40SM 03/M07 A2981 RMK AO1 T00331066






000
SXUS55 KMSO 201324
OSOMSO
MONTANA AWOS SUMMARY
NATIONAL WEATHER SERVICE MISSOULA MT
623 AM MST SAT DEC 20 2014

Montana AWOS Reports

LAUREL      |K6S8 201315Z AUTO 21006KT 40SM M03/M11 A2989 RMK AO1 T10271105
ROUNDUP     |KRPX 201315Z AUTO 24012G16KT 40SM 03/M06 A2980 RMK AO1 T00331055






000
SXUS55 KMSO 201304
OSOMSO
MONTANA AWOS SUMMARY
NATIONAL WEATHER SERVICE MISSOULA MT
603 AM MST SAT DEC 20 2014

Montana AWOS Reports

ROUNDUP     |KRPX 201255Z AUTO 00000KT 40SM 02/M06 A2980 RMK AO1 T00221055
SCOBEY      |K9S2 201255Z AUTO 00000KT 15SM M02/M05 A2978 RMK AO1 T10211049
MALTA       |KM75 201255Z AUTO 00000KT 40SM M02/M05 A2979 RMK AO1 T10211049
LAUREL      |K6S8 201255Z AUTO 00000KT 40SM M03/M10 A2990 RMK AO1 T10271099
TWIN BRIDGES|K7S1 201255Z AUTO 12004KT 40SM M04/M08 A2996 RMK AO1 T10381082






000
SXUS55 KMSO 201253
OSOMSO
MONTANA AWOS SUMMARY
NATIONAL WEATHER SERVICE MISSOULA MT
553 AM MST SAT DEC 20 2014

Montana AWOS Reports

LAUREL      |K6S8 201235Z AUTO 00000KT 40SM M02/M11 A2990 RMK AO1 T10211105






000
SXUS55 KMSO 201243
OSOMSO
MONTANA AWOS SUMMARY
NATIONAL WEATHER SERVICE MISSOULA MT
543 AM MST SAT DEC 20 2014

Montana AWOS Reports

ROUNDUP     |KRPX 201235Z AUTO 21007KT 40SM 03/M06 A2980 RMK AO1 T00281055






000
SXUS55 KMSO 201233
OSOMSO
MONTANA AWOS SUMMARY
NATIONAL WEATHER SERVICE MISSOULA MT
533 AM MST SAT DEC 20 2014

Montana AWOS Reports

LAUREL      |K6S8 201215Z AUTO 21004KT 40SM M02/M11 A2990 RMK AO1 T10161105
ROUNDUP     |KRPX 201215Z AUTO 25010G14KT 40SM 03/M05 A2980 RMK AO1 T00331049






000
SXUS55 KMSO 201203
OSOMSO
MONTANA AWOS SUMMARY
NATIONAL WEATHER SERVICE MISSOULA MT
503 AM MST SAT DEC 20 2014

Montana AWOS Reports

ROUNDUP     |KRPX 201155Z AUTO 25012G17KT 40SM 03/M06 A2979 RMK AO1 T00331055
SCOBEY      |K9S2 201155Z AUTO 32004KT 10SM M03/M06 A2979 RMK AO1 T10271055
MALTA       |KM75 201155Z AUTO 00000KT 40SM M01/M04 A2979 RMK AO1 T10101038
TWIN BRIDGES|K7S1 201155Z AUTO 00000KT 40SM M06/M10 A2996 RMK AO1 T10601099
LAUREL      |K6S8 201155Z AUTO 00000KT 40SM M02/M11 A2990 RMK AO1 T10161105






000
SXUS55 KMSO 201143
OSOMSO
MONTANA AWOS SUMMARY
NATIONAL WEATHER SERVICE MISSOULA MT
443 AM MST SAT DEC 20 2014

Montana AWOS Reports

ROUNDUP     |KRPX 201135Z AUTO 23009G20KT 40SM 04/M06 A2979 RMK AO1 T00391055
LAUREL      |K6S8 201135Z AUTO 00000KT 40SM M01/M09 A2990 RMK AO1 T10051093






000
SXUS55 KMSO 201133
OSOMSO
MONTANA AWOS SUMMARY
NATIONAL WEATHER SERVICE MISSOULA MT
432 AM MST SAT DEC 20 2014

Montana AWOS Reports

LAUREL      |K6S8 201115Z AUTO 22004KT 40SM M01/M10 A2990 RMK AO1 T10101099






000
SXUS55 KMSO 201123
OSOMSO
MONTANA AWOS SUMMARY
NATIONAL WEATHER SERVICE MISSOULA MT
422 AM MST SAT DEC 20 2014

Montana AWOS Reports

ROUNDUP     |KRPX 201115Z AUTO 24016G22KT 40SM 04/M06 A2979 RMK AO1 T00441055






000
SXUS55 KMSO 201103
OSOMSO
MONTANA AWOS SUMMARY
NATIONAL WEATHER SERVICE MISSOULA MT
403 AM MST SAT DEC 20 2014

Montana AWOS Reports

LAUREL      |K6S8 201055Z AUTO 00000KT 40SM M02/M10 A2990 RMK AO1 T10161099
ROUNDUP     |KRPX 201055Z AUTO 24017G22KT 40SM 05/M05 A2980 RMK AO1 T00501049
SCOBEY      |K9S2 201055Z AUTO 00000KT 5SM M03/M06 A2979 RMK AO1 T10321060
MALTA       |KM75 201055Z AUTO 00000KT 40SM M02/M05 A2979 RMK AO1 T10211049
TWIN BRIDGES|K7S1 201055Z AUTO 00000KT 40SM M04/M09 A2996 RMK AO1 T10431093






000
SXUS55 KMSO 201043
OSOMSO
MONTANA AWOS SUMMARY
NATIONAL WEATHER SERVICE MISSOULA MT
343 AM MST SAT DEC 20 2014

Montana AWOS Reports

ROUNDUP     |KRPX 201035Z AUTO 25017G21KT 40SM 05/M06 A2980 RMK AO1 T00501055
LAUREL      |K6S8 201035Z AUTO 00000KT 40SM M02/M09 A2991 RMK AO1 T10161088






000
SXUS55 KMSO 201023
OSOMSO
MONTANA AWOS SUMMARY
NATIONAL WEATHER SERVICE MISSOULA MT
323 AM MST SAT DEC 20 2014

Montana AWOS Reports

ROUNDUP     |KRPX 201015Z AUTO 25016G22KT 40SM 05/M06 A2980 RMK AO1 T00501060
LAUREL      |K6S8 201015Z AUTO 00000KT 40SM M01/M10 A2991 RMK AO1 T10101099






000
SXUS55 KMSO 201013
OSOMSO
MONTANA AWOS SUMMARY
NATIONAL WEATHER SERVICE MISSOULA MT
313 AM MST SAT DEC 20 2014

Montana AWOS Reports

MALTA       |KM75 200955Z AUTO 00000KT 40SM M03/M06 A2979 RMK AO1 T10271055
TWIN BRIDGES|K7S1 200955Z AUTO 11004KT 40SM M02/M07 A2997 RMK AO1 T10211071
SCOBEY      |K9S2 200955Z AUTO 00000KT 10SM M03/M06 A2979 RMK AO1 T10271055






000
SXUS55 KMSO 201003
OSOMSO
MONTANA AWOS SUMMARY
NATIONAL WEATHER SERVICE MISSOULA MT
303 AM MST SAT DEC 20 2014

Montana AWOS Reports

LAUREL      |K6S8 200955Z AUTO 00000KT 40SM M01/M09 A2991 RMK AO1 T10051093
ROUNDUP     |KRPX 200955Z AUTO 24013G18KT 40SM 05/M04 A2980 RMK AO1 T00501043






000
SXUS55 KMSO 201003
OSOMSO
MONTANA AWOS SUMMARY
NATIONAL WEATHER SERVICE MISSOULA MT
303 AM MST SAT DEC 20 2014

Montana AWOS Reports

LAUREL      |K6S8 200955Z AUTO 00000KT 40SM M01/M09 A2991 RMK AO1 T10051093
ROUNDUP     |KRPX 200955Z AUTO 24013G18KT 40SM 05/M04 A2980 RMK AO1 T00501043






000
SXUS55 KMSO 200943
OSOMSO
MONTANA AWOS SUMMARY
NATIONAL WEATHER SERVICE MISSOULA MT
243 AM MST SAT DEC 20 2014

Montana AWOS Reports

LAUREL      |K6S8 200935Z AUTO 00000KT 40SM M01/M09 A2991 RMK AO1 T10051093
ROUNDUP     |KRPX 200935Z AUTO 25016G21KT 40SM 06/M05 A2980 RMK AO1 T00561049






000
SXUS55 KMSO 200923
OSOMSO
MONTANA AWOS SUMMARY
NATIONAL WEATHER SERVICE MISSOULA MT
223 AM MST SAT DEC 20 2014

Montana AWOS Reports

ROUNDUP     |KRPX 200915Z AUTO 23007KT 40SM 03/M03 A2980 RMK AO1 T00331032
LAUREL      |K6S8 200915Z AUTO 00000KT 40SM M01/M09 A2990 RMK AO1 T10051093






000
SXUS55 KMSO 200913
OSOMSO
MONTANA AWOS SUMMARY
NATIONAL WEATHER SERVICE MISSOULA MT
213 AM MST SAT DEC 20 2014

Montana AWOS Reports

LAUREL      |K6S8 200855Z AUTO 00000KT 40SM 00/M09 A2990 RMK AO1 T00001093
ROUNDUP     |KRPX 200855Z AUTO 19006KT 40SM 02/M03 A2980 RMK AO1 T00221032
SCOBEY      |K9S2 200855Z AUTO 00000KT 15SM M04/M07 A2979 RMK AO1 T10431071
MALTA       |KM75 200855Z AUTO 00000KT 40SM M02/M04 A2979 RMK AO1 T10161043
TWIN BRIDGES|K7S1 200855Z AUTO 11004KT 40SM M02/M07 A2997 RMK AO1 T10211071






000
SXUS55 KMSO 200843
OSOMSO
MONTANA AWOS SUMMARY
NATIONAL WEATHER SERVICE MISSOULA MT
143 AM MST SAT DEC 20 2014

Montana AWOS Reports

LAUREL      |K6S8 200835Z AUTO 21005KT 40SM M01/M09 A2989 RMK AO1 T10051093
ROUNDUP     |KRPX 200835Z AUTO 00000KT 40SM 02/M03 A2979 RMK AO1 T00171032






000
SXUS55 KMSO 200823
OSOMSO
MONTANA AWOS SUMMARY
NATIONAL WEATHER SERVICE MISSOULA MT
122 AM MST SAT DEC 20 2014

Montana AWOS Reports

LAUREL      |K6S8 200815Z AUTO 00000KT 40SM M01/M10 A2989 RMK AO1 T10051099
ROUNDUP     |KRPX 200815Z AUTO 00000KT 40SM 01/M04 A2979 RMK AO1 T00111043






000
SXUS55 KMSO 200813
OSOMSO
MONTANA AWOS SUMMARY
NATIONAL WEATHER SERVICE MISSOULA MT
113 AM MST SAT DEC 20 2014

Montana AWOS Reports

LAUREL      |K6S8 200755Z AUTO 00000KT 40SM 00/M09 A2989 RMK AO1 T00001093
ROUNDUP     |KRPX 200755Z AUTO 00000KT 40SM 02/M04 A2980 RMK AO1 T00171038
SCOBEY      |K9S2 200755Z AUTO 00000KT 15SM M04/M07 A2980 RMK AO1 T10381066
MALTA       |KM75 200755Z AUTO 00000KT 40SM M01/M03 A2979 RMK AO1 T10051032
TWIN BRIDGES|K7S1 200755Z AUTO 10005KT 40SM 00/M06 A2997 RMK AO1 T00001060






000
SXUS55 KMSO 200743
OSOMSO
MONTANA AWOS SUMMARY
NATIONAL WEATHER SERVICE MISSOULA MT
1243 AM MST SAT DEC 20 2014

Montana AWOS Reports

ROUNDUP     |KRPX 200735Z AUTO 00000KT 40SM 01/M04 A2980 RMK AO1 T00111043






000
SXUS55 KMSO 200743
OSOMSO
MONTANA AWOS SUMMARY
NATIONAL WEATHER SERVICE MISSOULA MT
1243 AM MST SAT DEC 20 2014

Montana AWOS Reports

ROUNDUP     |KRPX 200735Z AUTO 00000KT 40SM 01/M04 A2980 RMK AO1 T00111043






000
SXUS55 KMSO 200724
OSOMSO
MONTANA AWOS SUMMARY
NATIONAL WEATHER SERVICE MISSOULA MT
1223 AM MST SAT DEC 20 2014

Montana AWOS Reports

LAUREL      |K6S8 200715Z AUTO 00000KT 40SM 01/M09 A2988 RMK AO1 T00061088
ROUNDUP     |KRPX 200715Z AUTO 00000KT 40SM 01/M04 A2979 RMK AO1 T00111043






000
SXUS55 KMSO 200724
OSOMSO
MONTANA AWOS SUMMARY
NATIONAL WEATHER SERVICE MISSOULA MT
1223 AM MST SAT DEC 20 2014

Montana AWOS Reports

LAUREL      |K6S8 200715Z AUTO 00000KT 40SM 01/M09 A2988 RMK AO1 T00061088
ROUNDUP     |KRPX 200715Z AUTO 00000KT 40SM 01/M04 A2979 RMK AO1 T00111043






000
SXUS55 KMSO 200713
OSOMSO
MONTANA AWOS SUMMARY
NATIONAL WEATHER SERVICE MISSOULA MT
1212 AM MST SAT DEC 20 2014

Montana AWOS Reports

LAUREL      |K6S8 200655Z AUTO 21005KT 40SM 00/M09 A2988 RMK AO1 T00001093
SCOBEY      |K9S2 200655Z AUTO 00000KT 10SM M08/M11 A2982 RMK AO1 T10821110
MALTA       |KM75 200655Z AUTO 00000KT 40SM M02/M04 A2979 RMK AO1 T10161043






000
SXUS55 KMSO 200703
OSOMSO
MONTANA AWOS SUMMARY
NATIONAL WEATHER SERVICE MISSOULA MT
1203 AM MST SAT DEC 20 2014

Montana AWOS Reports

ROUNDUP     |KRPX 200655Z AUTO 00000KT 40SM 01/M05 A2979 RMK AO1 T00111049
TWIN BRIDGES|K7S1 200655Z AUTO 07005KT 40SM M01/M07 A2998 RMK AO1 T10101071






000
SXUS55 KMSO 200653
OSOMSO
MONTANA AWOS SUMMARY
NATIONAL WEATHER SERVICE MISSOULA MT
1153 PM MST FRI DEC 19 2014

Montana AWOS Reports

LAUREL      |K6S8 200635Z AUTO 20004KT 40SM M01/M09 A2989 RMK AO1 T10051093






000
SXUS55 KMSO 200643
OSOMSO
MONTANA AWOS SUMMARY
NATIONAL WEATHER SERVICE MISSOULA MT
1143 PM MST FRI DEC 19 2014

Montana AWOS Reports

ROUNDUP     |KRPX 200635Z AUTO 20008KT 40SM 02/M04 A2979 RMK AO1 T00221043






000
SXUS55 KMSO 200623
OSOMSO
MONTANA AWOS SUMMARY
NATIONAL WEATHER SERVICE MISSOULA MT
1123 PM MST FRI DEC 19 2014

Montana AWOS Reports

ROUNDUP     |KRPX 200615Z AUTO 21010KT 40SM 02/M05 A2979 RMK AO1 T00171049
LAUREL      |K6S8 200615Z AUTO 00000KT 40SM 00/M09 A2989 RMK AO1 T00001093






000
SXUS55 KMSO 200613
OSOMSO
MONTANA AWOS SUMMARY
NATIONAL WEATHER SERVICE MISSOULA MT
1113 PM MST FRI DEC 19 2014

Montana AWOS Reports

LAUREL      |K6S8 200555Z AUTO 00000KT 40SM 01/M09 A2989 RMK AO1 T00061088
MALTA       |KM75 200555Z AUTO 00000KT 40SM M02/M05 A2980 RMK AO1 T10211049






000
SXUS55 KMSO 200603
OSOMSO
MONTANA AWOS SUMMARY
NATIONAL WEATHER SERVICE MISSOULA MT
1103 PM MST FRI DEC 19 2014

Montana AWOS Reports

ROUNDUP     |KRPX 200555Z AUTO 20009KT 40SM 02/M05 A2979 RMK AO1 T00221049
SCOBEY      |K9S2 200555Z AUTO 00000KT 1/2SM M11/M14 A2983 RMK AO1 T11051138
TWIN BRIDGES|K7S1 200555Z AUTO 00000KT 40SM 00/M06 A2996 RMK AO1 T00001055






000
SXUS55 KMSO 200553
OSOMSO
MONTANA AWOS SUMMARY
NATIONAL WEATHER SERVICE MISSOULA MT
1053 PM MST FRI DEC 19 2014

Montana AWOS Reports

LAUREL      |K6S8 200535Z AUTO 00000KT 40SM 02/M09 A2989 RMK AO1 T00171088






000
SXUS55 KMSO 200543
OSOMSO
MONTANA AWOS SUMMARY
NATIONAL WEATHER SERVICE MISSOULA MT
1043 PM MST FRI DEC 19 2014

Montana AWOS Reports

ROUNDUP     |KRPX 200535Z AUTO 20009G13KT 40SM 02/M06 A2978 RMK AO1 T00221055






000
SXUS55 KMSO 200523
OSOMSO
MONTANA AWOS SUMMARY
NATIONAL WEATHER SERVICE MISSOULA MT
1023 PM MST FRI DEC 19 2014

Montana AWOS Reports

LAUREL      |K6S8 200515Z AUTO 00000KT 40SM 02/M09 A2989 RMK AO1 T00171088






000
SXUS55 KMSO 200513
OSOMSO
MONTANA AWOS SUMMARY
NATIONAL WEATHER SERVICE MISSOULA MT
1012 PM MST FRI DEC 19 2014

Montana AWOS Reports

LAUREL      |K6S8 200455Z AUTO 00000KT 40SM 02/M09 A2989 RMK AO1 T00171088
SCOBEY      |K9S2 200455Z AUTO 00000KT 1/4SM M10/M14 A2985 RMK AO1 T10991138
MALTA       |KM75 200455Z AUTO 00000KT 40SM M02/M05 A2979 RMK AO1 T10211049
TWIN BRIDGES|K7S1 200455Z AUTO 13006KT 40SM 00/M06 A2995 RMK AO1 T00001055






000
SXUS55 KMSO 200503
OSOMSO
MONTANA AWOS SUMMARY
NATIONAL WEATHER SERVICE MISSOULA MT
1003 PM MST FRI DEC 19 2014

Montana AWOS Reports

ROUNDUP     |KRPX 200455Z AUTO 19006KT 40SM 02/M07 A2978 RMK AO1 T00171066






000
SXUS55 KMSO 200443
OSOMSO
MONTANA AWOS SUMMARY
NATIONAL WEATHER SERVICE MISSOULA MT
943 PM MST FRI DEC 19 2014

Montana AWOS Reports

LAUREL      |K6S8 200435Z AUTO 00000KT 40SM 02/M09 A2989 RMK AO1 T00221088






000
SXUS55 KMSO 200423
OSOMSO
MONTANA AWOS SUMMARY
NATIONAL WEATHER SERVICE MISSOULA MT
923 PM MST FRI DEC 19 2014

Montana AWOS Reports

ROUNDUP     |KRPX 200415Z AUTO 21010G16KT 40SM 03/M07 A2978 RMK AO1 T00281066
LAUREL      |K6S8 200415Z AUTO 00000KT 40SM 02/M09 A2989 RMK AO1 T00221088






000
SXUS55 KMSO 200413
OSOMSO
MONTANA AWOS SUMMARY
NATIONAL WEATHER SERVICE MISSOULA MT
913 PM MST FRI DEC 19 2014

Montana AWOS Reports

TWIN BRIDGES|K7S1 200355Z AUTO 00000KT 40SM M01/M05 A2995 RMK AO1 T10101049






000
SXUS55 KMSO 200403
OSOMSO
MONTANA AWOS SUMMARY
NATIONAL WEATHER SERVICE MISSOULA MT
903 PM MST FRI DEC 19 2014

Montana AWOS Reports

ROUNDUP     |KRPX 200355Z AUTO 20013G17KT 40SM 03/M07 A2978 RMK AO1 T00281071
LAUREL      |K6S8 200355Z AUTO 00000KT 40SM 03/M09 A2988 RMK AO1 T00281088
SCOBEY      |K9S2 200355Z AUTO 00000KT 1/2SM M09/M13 A2985 RMK AO1 T10931132
MALTA       |KM75 200355Z AUTO 00000KT 40SM M04/M07 A2979 RMK AO1 T10381066






000
SXUS55 KMSO 200403
OSOMSO
MONTANA AWOS SUMMARY
NATIONAL WEATHER SERVICE MISSOULA MT
903 PM MST FRI DEC 19 2014

Montana AWOS Reports

ROUNDUP     |KRPX 200355Z AUTO 20013G17KT 40SM 03/M07 A2978 RMK AO1 T00281071
LAUREL      |K6S8 200355Z AUTO 00000KT 40SM 03/M09 A2988 RMK AO1 T00281088
SCOBEY      |K9S2 200355Z AUTO 00000KT 1/2SM M09/M13 A2985 RMK AO1 T10931132
MALTA       |KM75 200355Z AUTO 00000KT 40SM M04/M07 A2979 RMK AO1 T10381066






000
SXUS55 KMSO 200343
OSOMSO
MONTANA AWOS SUMMARY
NATIONAL WEATHER SERVICE MISSOULA MT
843 PM MST FRI DEC 19 2014

Montana AWOS Reports

ROUNDUP     |KRPX 200335Z AUTO 19012G16KT 40SM 03/M07 A2977 RMK AO1 T00281071
LAUREL      |K6S8 200335Z AUTO 22007KT 40SM 03/M09 A2988 RMK AO1 T00331088






000
SXUS55 KMSO 200343
OSOMSO
MONTANA AWOS SUMMARY
NATIONAL WEATHER SERVICE MISSOULA MT
843 PM MST FRI DEC 19 2014

Montana AWOS Reports

ROUNDUP     |KRPX 200335Z AUTO 19012G16KT 40SM 03/M07 A2977 RMK AO1 T00281071
LAUREL      |K6S8 200335Z AUTO 22007KT 40SM 03/M09 A2988 RMK AO1 T00331088






000
SXUS55 KMSO 200323
OSOMSO
MONTANA AWOS SUMMARY
NATIONAL WEATHER SERVICE MISSOULA MT
822 PM MST FRI DEC 19 2014

Montana AWOS Reports

ROUNDUP     |KRPX 200315Z AUTO 19007KT 40SM 02/M07 A2977 RMK AO1 T00221071
LAUREL      |K6S8 200315Z AUTO 23009KT 40SM 03/M09 A2987 RMK AO1 T00281088






000
SXUS55 KMSO 200304
OSOMSO
MONTANA AWOS SUMMARY
NATIONAL WEATHER SERVICE MISSOULA MT
803 PM MST FRI DEC 19 2014

Montana AWOS Reports

ROUNDUP     |KRPX 200255Z AUTO 19006KT 40SM 02/M07 A2978 RMK AO1 T00221071
LAUREL      |K6S8 200255Z AUTO 00000KT 40SM 02/M09 A2987 RMK AO1 T00171088
SCOBEY      |K9S2 200255Z AUTO 00000KT 2SM M06/M09 A2985 RMK AO1 T10601093
MALTA       |KM75 200255Z AUTO 00000KT 40SM M04/M07 A2980 RMK AO1 T10381066
TWIN BRIDGES|K7S1 200255Z AUTO 00000KT 40SM 01/M04 A2994 RMK AO1 T00111038






000
SXUS55 KMSO 200243
OSOMSO
MONTANA AWOS SUMMARY
NATIONAL WEATHER SERVICE MISSOULA MT
743 PM MST FRI DEC 19 2014

Montana AWOS Reports

ROUNDUP     |KRPX 200235Z AUTO 19005KT 40SM 02/M08 A2978 RMK AO1 T00221077
LAUREL      |K6S8 200235Z AUTO 22006KT 40SM 02/M10 A2986 RMK AO1 T00171099






000
SXUS55 KMSO 200233
OSOMSO
MONTANA AWOS SUMMARY
NATIONAL WEATHER SERVICE MISSOULA MT
733 PM MST FRI DEC 19 2014

Montana AWOS Reports

LAUREL      |K6S8 200215Z AUTO 20006KT 40SM 02/M09 A2986 RMK AO1 T00221093






000
SXUS55 KMSO 200223
OSOMSO
MONTANA AWOS SUMMARY
NATIONAL WEATHER SERVICE MISSOULA MT
723 PM MST FRI DEC 19 2014

Montana AWOS Reports

ROUNDUP     |KRPX 200215Z AUTO 18006KT 40SM 03/M08 A2978 RMK AO1 T00281077






000
SXUS55 KMSO 200203
OSOMSO
MONTANA AWOS SUMMARY
NATIONAL WEATHER SERVICE MISSOULA MT
703 PM MST FRI DEC 19 2014

Montana AWOS Reports

TWIN BRIDGES|K7S1 200155Z AUTO 00000KT 40SM 02/M03 A2994 RMK AO1 T00171032
LAUREL      |K6S8 200155Z AUTO 20006KT 40SM 02/M10 A2986 RMK AO1 T00171099
SCOBEY      |K9S2 200155Z AUTO 00000KT 15SM M06/M09 A2985 RMK AO1 T10551093






000
SXUS55 KMSO 200153
OSOMSO
MONTANA AWOS SUMMARY
NATIONAL WEATHER SERVICE MISSOULA MT
653 PM MST FRI DEC 19 2014

Montana AWOS Reports

LAUREL      |K6S8 200135Z AUTO 00000KT 40SM 01/M11 A2986 RMK AO1 T00111105






000
SXUS55 KMSO 200153
OSOMSO
MONTANA AWOS SUMMARY
NATIONAL WEATHER SERVICE MISSOULA MT
653 PM MST FRI DEC 19 2014

Montana AWOS Reports

LAUREL      |K6S8 200135Z AUTO 00000KT 40SM 01/M11 A2986 RMK AO1 T00111105






000
SXUS55 KMSO 200143
OSOMSO
MONTANA AWOS SUMMARY
NATIONAL WEATHER SERVICE MISSOULA MT
642 PM MST FRI DEC 19 2014

Montana AWOS Reports

ROUNDUP     |KRPX 200135Z AUTO 18007KT 40SM 04/M07 A2977 RMK AO1 T00391071






000
SXUS55 KMSO 200143
OSOMSO
MONTANA AWOS SUMMARY
NATIONAL WEATHER SERVICE MISSOULA MT
642 PM MST FRI DEC 19 2014

Montana AWOS Reports

ROUNDUP     |KRPX 200135Z AUTO 18007KT 40SM 04/M07 A2977 RMK AO1 T00391071






000
SXUS55 KMSO 200123
OSOMSO
MONTANA AWOS SUMMARY
NATIONAL WEATHER SERVICE MISSOULA MT
623 PM MST FRI DEC 19 2014

Montana AWOS Reports

ROUNDUP     |KRPX 200115Z AUTO 19008KT 40SM 04/M08 A2977 RMK AO1 T00391077
LAUREL      |K6S8 200115Z AUTO 21007KT 40SM 01/M11 A2986 RMK AO1 T00111105






000
SXUS55 KMSO 200123
OSOMSO
MONTANA AWOS SUMMARY
NATIONAL WEATHER SERVICE MISSOULA MT
623 PM MST FRI DEC 19 2014

Montana AWOS Reports

ROUNDUP     |KRPX 200115Z AUTO 19008KT 40SM 04/M08 A2977 RMK AO1 T00391077
LAUREL      |K6S8 200115Z AUTO 21007KT 40SM 01/M11 A2986 RMK AO1 T00111105






000
SXUS55 KMSO 200114
OSOMSO
MONTANA AWOS SUMMARY
NATIONAL WEATHER SERVICE MISSOULA MT
613 PM MST FRI DEC 19 2014

Montana AWOS Reports

MALTA       |KM75 200055Z AUTO 00000KT 40SM M02/M06 A2980 RMK AO1 T10211055






000
SXUS55 KMSO 200103
OSOMSO
MONTANA AWOS SUMMARY
NATIONAL WEATHER SERVICE MISSOULA MT
603 PM MST FRI DEC 19 2014

Montana AWOS Reports

LAUREL      |K6S8 200055Z AUTO 21007KT 40SM 01/M11 A2986 RMK AO1 T00111105
TWIN BRIDGES|K7S1 200055Z AUTO 15008KT 40SM 03/M03 A2994 RMK AO1 T00281027
SCOBEY      |K9S2 200055Z AUTO 00000KT 15SM M05/M08 A2985 RMK AO1 T10491082






000
SXUS55 KMSO 200043
OSOMSO
MONTANA AWOS SUMMARY
NATIONAL WEATHER SERVICE MISSOULA MT
543 PM MST FRI DEC 19 2014

Montana AWOS Reports

LAUREL      |K6S8 200035Z AUTO 20005KT 40SM 02/M10 A2986 RMK AO1 T00171099






000
SXUS55 KMSO 200024
OSOMSO
MONTANA AWOS SUMMARY
NATIONAL WEATHER SERVICE MISSOULA MT
523 PM MST FRI DEC 19 2014

Montana AWOS Reports

ROUNDUP     |KRPX 200015Z AUTO 18004KT 40SM 04/M07 A2977 RMK AO1 T00441066
LAUREL      |K6S8 200015Z AUTO 19006KT 40SM 02/M10 A2986 RMK AO1 T00221099
MALTA       |KM75 192355Z AUTO 00000KT 40SM M03/M06 A2982 RMK AO1 T10271060






000
SXUS55 KMSO 200004
OSOMSO
MONTANA AWOS SUMMARY
NATIONAL WEATHER SERVICE MISSOULA MT
503 PM MST FRI DEC 19 2014

Montana AWOS Reports

SCOBEY      |K9S2 192355Z AUTO 00000KT 15SM M04/M08 A2985 RMK AO1 T10381077
TWIN BRIDGES|K7S1 192355Z AUTO 12004KT 40SM 03/M04 A2993 RMK AO1 T00281038
LAUREL      |K6S8 192355Z AUTO 18004KT 40SM 03/M09 A2986 RMK AO1 T00281093






000
SXUS55 KMSO 192343
OSOMSO
MONTANA AWOS SUMMARY
NATIONAL WEATHER SERVICE MISSOULA MT
442 PM MST FRI DEC 19 2014

Montana AWOS Reports

LAUREL      |K6S8 192335Z AUTO 00000KT 40SM 03/M09 A2986 RMK AO1 T00331093






000
SXUS55 KMSO 192333
OSOMSO
MONTANA AWOS SUMMARY
NATIONAL WEATHER SERVICE MISSOULA MT
433 PM MST FRI DEC 19 2014

Montana AWOS Reports

LAUREL      |K6S8 192315Z AUTO 16004KT 40SM 04/M09 A2987 RMK AO1 T00391093






000
SXUS55 KMSO 192323
OSOMSO
MONTANA AWOS SUMMARY
NATIONAL WEATHER SERVICE MISSOULA MT
423 PM MST FRI DEC 19 2014

Montana AWOS Reports

ROUNDUP     |KRPX 192315Z AUTO 19005KT 40SM 06/M07 A2978 RMK AO1 T00611066






000
SXUS55 KMSO 192303
OSOMSO
MONTANA AWOS SUMMARY
NATIONAL WEATHER SERVICE MISSOULA MT
403 PM MST FRI DEC 19 2014

Montana AWOS Reports

SCOBEY      |K9S2 192255Z AUTO 00000KT 25SM 00/M04 A2986 RMK AO1 T00001043
MALTA       |KM75 192255Z AUTO 00000KT 40SM 01/M04 A2982 RMK AO1 T00061038
TWIN BRIDGES|K7S1 192255Z AUTO 14004KT 40SM 03/M04 A2993 RMK AO1 T00281038
LAUREL      |K6S8 192255Z AUTO 19007KT 40SM 04/M09 A2987 RMK AO1 T00391093






000
SXUS55 KMSO 192243
OSOMSO
MONTANA AWOS SUMMARY
NATIONAL WEATHER SERVICE MISSOULA MT
343 PM MST FRI DEC 19 2014

Montana AWOS Reports

LAUREL      |K6S8 192235Z AUTO 18004KT 40SM 04/M09 A2987 RMK AO1 T00441088






000
SXUS55 KMSO 192223
OSOMSO
MONTANA AWOS SUMMARY
NATIONAL WEATHER SERVICE MISSOULA MT
323 PM MST FRI DEC 19 2014

Montana AWOS Reports

ROUNDUP     |KRPX 192215Z AUTO 16004KT 40SM 07/M06 A2977 RMK AO1 T00671060
LAUREL      |K6S8 192215Z AUTO 20005KT 40SM 05/M09 A2987 RMK AO1 T00501088






000
SXUS55 KMSO 192213
OSOMSO
MONTANA AWOS SUMMARY
NATIONAL WEATHER SERVICE MISSOULA MT
313 PM MST FRI DEC 19 2014

Montana AWOS Reports

MALTA       |KM75 192155Z AUTO 00000KT 40SM 04/M02 A2982 RMK AO1 T00391021






000
SXUS55 KMSO 192203
OSOMSO
MONTANA AWOS SUMMARY
NATIONAL WEATHER SERVICE MISSOULA MT
303 PM MST FRI DEC 19 2014

Montana AWOS Reports

ROUNDUP     |KRPX 192155Z AUTO 17006KT 40SM 07/M07 A2977 RMK AO1 T00671066






000
SXUS55 KMSO 192144
OSOMSO
MONTANA AWOS SUMMARY
NATIONAL WEATHER SERVICE MISSOULA MT
243 PM MST FRI DEC 19 2014

Montana AWOS Reports

LAUREL      |K6S8 192135Z AUTO 19011G17KT 40SM 06/M09 A2986 RMK AO1 T00561088






000
SXUS55 KMSO 192123
OSOMSO
MONTANA AWOS SUMMARY
NATIONAL WEATHER SERVICE MISSOULA MT
223 PM MST FRI DEC 19 2014

Montana AWOS Reports

ROUNDUP     |KRPX 192115Z AUTO 00000KT 40SM 07/M07 A2977 RMK AO1 T00671066
LAUREL      |K6S8 192115Z AUTO 20010G15KT 40SM 06/M08 A2986 RMK AO1 T00561082






000
SXUS55 KMSO 192113
OSOMSO
MONTANA AWOS SUMMARY
NATIONAL WEATHER SERVICE MISSOULA MT
213 PM MST FRI DEC 19 2014

Montana AWOS Reports

LAUREL      |K6S8 192055Z AUTO 20008KT 40SM 07/M08 A2986 RMK AO1 T00671082
SCOBEY      |K9S2 192055Z AUTO 00000KT 25SM 01/M03 A2985 RMK AO1 T00061032
MALTA       |KM75 192055Z AUTO 00000KT 40SM 03/M01 A2982 RMK AO1 T00331010






000
SXUS55 KMSO 192103
OSOMSO
MONTANA AWOS SUMMARY
NATIONAL WEATHER SERVICE MISSOULA MT
203 PM MST FRI DEC 19 2014

Montana AWOS Reports

ROUNDUP     |KRPX 192055Z AUTO 00000KT 40SM 07/M07 A2977 RMK AO1 T00671066
TWIN BRIDGES|K7S1 192055Z AUTO 13005KT 40SM 03/M04 A2993 RMK AO1 T00281038






000
SXUS55 KMSO 192043
OSOMSO
MONTANA AWOS SUMMARY
NATIONAL WEATHER SERVICE MISSOULA MT
143 PM MST FRI DEC 19 2014

Montana AWOS Reports

LAUREL      |K6S8 192035Z AUTO 19008KT 40SM 07/M08 A2986 RMK AO1 T00671082






000
SXUS55 KMSO 192024
OSOMSO
MONTANA AWOS SUMMARY
NATIONAL WEATHER SERVICE MISSOULA MT
123 PM MST FRI DEC 19 2014

Montana AWOS Reports

LAUREL      |K6S8 192015Z AUTO 19010G14KT 40SM 07/M08 A2986 RMK AO1 T00671082






000
SXUS55 KMSO 192013
OSOMSO
MONTANA AWOS SUMMARY
NATIONAL WEATHER SERVICE MISSOULA MT
113 PM MST FRI DEC 19 2014

Montana AWOS Reports

LAUREL      |K6S8 191955Z AUTO 19007KT 40SM 06/M08 A2987 RMK AO1 T00611082
TWIN BRIDGES|K7S1 191955Z AUTO 18009G14KT 40SM 03/M04 A2994 RMK AO1 T00281043
SCOBEY      |K9S2 191955Z AUTO 00000KT 25SM M02/M04 A2985 RMK AO1 T10161038
MALTA       |KM75 191955Z AUTO 05004KT 40SM 01/M02 A2983 RMK AO1 T00111021






000
SXUS55 KMSO 192003
OSOMSO
MONTANA AWOS SUMMARY
NATIONAL WEATHER SERVICE MISSOULA MT
103 PM MST FRI DEC 19 2014

Montana AWOS Reports

ROUNDUP     |KRPX 191955Z AUTO 20012G16KT 40SM 06/M06 A2978 RMK AO1 T00611060






000
SXUS55 KMSO 192003
OSOMSO
MONTANA AWOS SUMMARY
NATIONAL WEATHER SERVICE MISSOULA MT
103 PM MST FRI DEC 19 2014

Montana AWOS Reports

ROUNDUP     |KRPX 191955Z AUTO 20012G16KT 40SM 06/M06 A2978 RMK AO1 T00611060






000
SXUS55 KMSO 191953
OSOMSO
MONTANA AWOS SUMMARY
NATIONAL WEATHER SERVICE MISSOULA MT
1253 PM MST FRI DEC 19 2014

Montana AWOS Reports

LAUREL      |K6S8 191935Z AUTO 20005KT 40SM 06/M08 A2987 RMK AO1 T00611082






000
SXUS55 KMSO 191953
OSOMSO
MONTANA AWOS SUMMARY
NATIONAL WEATHER SERVICE MISSOULA MT
1253 PM MST FRI DEC 19 2014

Montana AWOS Reports

LAUREL      |K6S8 191935Z AUTO 20005KT 40SM 06/M08 A2987 RMK AO1 T00611082






000
SXUS55 KMSO 191943
OSOMSO
MONTANA AWOS SUMMARY
NATIONAL WEATHER SERVICE MISSOULA MT
1243 PM MST FRI DEC 19 2014

Montana AWOS Reports

ROUNDUP     |KRPX 191935Z AUTO 20007KT 40SM 07/M06 A2979 RMK AO1 T00671060






000
SXUS55 KMSO 191943
OSOMSO
MONTANA AWOS SUMMARY
NATIONAL WEATHER SERVICE MISSOULA MT
1243 PM MST FRI DEC 19 2014

Montana AWOS Reports

ROUNDUP     |KRPX 191935Z AUTO 20007KT 40SM 07/M06 A2979 RMK AO1 T00671060






000
SXUS55 KMSO 191933
OSOMSO
MONTANA AWOS SUMMARY
NATIONAL WEATHER SERVICE MISSOULA MT
1232 PM MST FRI DEC 19 2014

Montana AWOS Reports

MALTA       |KM75 191855Z AUTO 00000KT 40SM M01/M04 A2985 RMK AO1 T10101038






000
SXUS55 KMSO 191933
OSOMSO
MONTANA AWOS SUMMARY
NATIONAL WEATHER SERVICE MISSOULA MT
1232 PM MST FRI DEC 19 2014

Montana AWOS Reports

MALTA       |KM75 191855Z AUTO 00000KT 40SM M01/M04 A2985 RMK AO1 T10101038






000
SXUS55 KMSO 191924
OSOMSO
MONTANA AWOS SUMMARY
NATIONAL WEATHER SERVICE MISSOULA MT
1223 PM MST FRI DEC 19 2014

Montana AWOS Reports

ROUNDUP     |KRPX 191915Z AUTO 19006KT 40SM 07/M06 A2980 RMK AO1 T00671060
LAUREL      |K6S8 191915Z AUTO 20004KT 40SM 06/M08 A2988 RMK AO1 T00561082






000
SXUS55 KMSO 191913
OSOMSO
MONTANA AWOS SUMMARY
NATIONAL WEATHER SERVICE MISSOULA MT
1213 PM MST FRI DEC 19 2014

Montana AWOS Reports

SCOBEY      |K9S2 191855Z AUTO 00000KT 25SM M03/M05 A2987 RMK AO1 T10271049






000
SXUS55 KMSO 191903
OSOMSO
MONTANA AWOS SUMMARY
NATIONAL WEATHER SERVICE MISSOULA MT
1203 PM MST FRI DEC 19 2014

Montana AWOS Reports

ROUNDUP     |KRPX 191855Z AUTO 20009G15KT 40SM 07/M06 A2981 RMK AO1 T00671060
TWIN BRIDGES|K7S1 191855Z AUTO 20011G15KT 40SM 02/M04 A2995 RMK AO1 T00221038
LAUREL      |K6S8 191855Z AUTO 00000KT 40SM 05/M08 A2989 RMK AO1 T00501077






000
SXUS55 KMSO 191843
OSOMSO
MONTANA AWOS SUMMARY
NATIONAL WEATHER SERVICE MISSOULA MT
1143 AM MST FRI DEC 19 2014

Montana AWOS Reports

ROUNDUP     |KRPX 191835Z AUTO 21009KT 40SM 06/M06 A2982 RMK AO1 T00561055
LAUREL      |K6S8 191835Z AUTO 17004KT 40SM 03/M09 A2990 RMK AO1 T00331088






    US Dept of Commerce
    National Oceanic and Atmospheric Administration
    National Weather Service
    1325 East West Highway
    Silver Spring, MD 20910
    Page Author: NWS Internet Services Team
Disclaimer
Information Quality
Credits
Glossary
Privacy Policy
Freedom of Information Act (FOIA)
About Us
Career Opportunities